CPA113 VHHH-NZAA
Flight info
| Callsign | CPA113 |
|---|---|
| Flight time | N/A |
| Altitude | 35000 |
| Route | DALOL V642 NOMAN A461 AVMUP W16 MIA B462 TAC R337 ISGOG/N0498F370 DCT 08N135E 05N140E 01N145E DCT PIKOK DCT MOE DCT 05S151E/N0489F390 0821S15500E 10S157E 1400S15923E 15S160E DCT BODEG DCT 24S165E/N0485F410 DCT OSVAR DCT 31S170E DCT ELNOS |
| Aircraft | A359/H-SDE2E3GHIJ3J4J5LM1ORWXY/LB1D1 |
Departure
| Time | N/A |
|---|---|
| Airport | Hong Kong International Airport (VHHH) |
Arrival
| Time | 2026-05-04 06:33 |
|---|---|
| Airport | Auckland International Airport (NZAA) |
| Time | Latitude | Longitude | Altitude | Speed | Heading |
|---|---|---|---|---|---|
| 2026-05-03 20:15 | 20.78451 | 116.14335 | 29803 ft | 517 kts | 151° |
| 2026-05-03 20:15 | 20.75429 | 116.16418 | 30103 ft | 516 kts | 152° |
| 2026-05-03 20:15 | 20.72393 | 116.18461 | 30357 ft | 516 kts | 152° |
| 2026-05-03 20:15 | 20.69347 | 116.20496 | 30614 ft | 515 kts | 152° |
| 2026-05-03 20:16 | 20.66308 | 116.22527 | 30886 ft | 515 kts | 152° |
| 2026-05-03 20:16 | 20.63286 | 116.24554 | 31115 ft | 514 kts | 152° |
| 2026-05-03 20:16 | 20.60252 | 116.26597 | 31346 ft | 514 kts | 152° |
| 2026-05-03 20:16 | 20.57215 | 116.28645 | 31486 ft | 517 kts | 152° |
| 2026-05-03 20:17 | 20.54175 | 116.30699 | 31743 ft | 516 kts | 152° |
| 2026-05-03 20:17 | 20.51149 | 116.32745 | 32037 ft | 514 kts | 152° |
| 2026-05-03 20:17 | 20.48132 | 116.34784 | 32305 ft | 513 kts | 152° |
| 2026-05-03 20:17 | 20.45117 | 116.36821 | 32562 ft | 512 kts | 152° |
| 2026-05-03 20:18 | 20.42141 | 116.38829 | 32790 ft | 512 kts | 152° |
| 2026-05-03 20:18 | 20.39128 | 116.40861 | 33022 ft | 511 kts | 152° |
| 2026-05-03 20:18 | 20.36126 | 116.42885 | 33263 ft | 510 kts | 152° |
| 2026-05-03 20:18 | 20.33127 | 116.44905 | 33482 ft | 510 kts | 151° |
| 2026-05-03 20:19 | 20.30120 | 116.46930 | 33713 ft | 509 kts | 151° |
| 2026-05-03 20:19 | 20.27141 | 116.48936 | 34016 ft | 506 kts | 151° |
| 2026-05-03 20:19 | 20.24171 | 116.50934 | 34223 ft | 505 kts | 151° |
| 2026-05-03 20:19 | 20.21194 | 116.52935 | 34354 ft | 506 kts | 151° |
| 2026-05-03 20:20 | 20.18221 | 116.54933 | 34477 ft | 506 kts | 151° |
| 2026-05-03 20:20 | 20.15242 | 116.56933 | 34645 ft | 506 kts | 151° |
| 2026-05-03 20:20 | 20.12273 | 116.58927 | 34758 ft | 506 kts | 151° |
| 2026-05-03 20:20 | 20.09324 | 116.60907 | 34895 ft | 506 kts | 151° |
| 2026-05-03 20:21 | 20.06300 | 116.62935 | 34936 ft | 509 kts | 151° |
| 2026-05-03 20:21 | 20.00431 | 116.67139 | 34937 ft | 516 kts | 143° |
| 2026-05-03 20:22 | 19.95303 | 116.72535 | 34942 ft | 520 kts | 136° |
| 2026-05-03 20:22 | 19.90408 | 116.78201 | 34937 ft | 520 kts | 135° |
| 2026-05-03 20:23 | 19.85545 | 116.83900 | 34936 ft | 520 kts | 135° |
| 2026-05-03 20:23 | 19.80659 | 116.89589 | 34934 ft | 521 kts | 135° |
| 2026-05-03 20:24 | 19.75756 | 116.95265 | 34937 ft | 522 kts | 136° |
| 2026-05-03 20:24 | 19.70867 | 117.00914 | 34935 ft | 522 kts | 136° |
| 2026-05-03 20:25 | 19.65950 | 117.06591 | 34935 ft | 522 kts | 136° |
| 2026-05-03 20:25 | 19.61035 | 117.12261 | 34932 ft | 522 kts | 136° |
| 2026-05-03 20:26 | 19.56116 | 117.17930 | 34928 ft | 522 kts | 135° |
| 2026-05-03 20:26 | 19.51207 | 117.23583 | 34933 ft | 520 kts | 135° |
| 2026-05-03 20:27 | 19.46307 | 117.29220 | 34934 ft | 519 kts | 135° |
| 2026-05-03 20:27 | 19.41407 | 117.34851 | 34933 ft | 519 kts | 135° |
| 2026-05-03 20:28 | 19.36508 | 117.40475 | 34933 ft | 519 kts | 135° |
| 2026-05-03 20:28 | 19.31604 | 117.46099 | 34932 ft | 519 kts | 136° |
| 2026-05-03 20:29 | 19.26735 | 117.51678 | 34931 ft | 519 kts | 135° |
| 2026-05-03 20:29 | 19.21831 | 117.57292 | 34923 ft | 519 kts | 135° |
| 2026-05-03 20:30 | 19.16932 | 117.62895 | 34943 ft | 518 kts | 135° |
| 2026-05-03 20:30 | 19.12028 | 117.68499 | 34925 ft | 518 kts | 135° |
| 2026-05-03 20:31 | 19.07122 | 117.74100 | 34923 ft | 518 kts | 135° |
| 2026-05-03 20:31 | 19.02252 | 117.79655 | 34938 ft | 518 kts | 135° |
| 2026-05-03 20:32 | 18.97336 | 117.85258 | 34944 ft | 518 kts | 135° |
| 2026-05-03 20:32 | 18.92429 | 117.90842 | 34926 ft | 518 kts | 135° |
| 2026-05-03 20:33 | 18.87541 | 117.96399 | 34928 ft | 518 kts | 135° |
| 2026-05-03 20:33 | 18.82632 | 118.01977 | 34930 ft | 518 kts | 135° |
| 2026-05-03 20:34 | 18.77729 | 118.07543 | 34927 ft | 517 kts | 135° |
| 2026-05-03 20:34 | 18.72836 | 118.13093 | 34932 ft | 517 kts | 135° |
| 2026-05-03 20:35 | 18.67944 | 118.18636 | 34927 ft | 517 kts | 135° |
| 2026-05-03 20:35 | 18.63034 | 118.24194 | 34929 ft | 517 kts | 135° |
| 2026-05-03 20:36 | 18.58141 | 118.29729 | 34925 ft | 517 kts | 135° |
| 2026-05-03 20:36 | 18.53222 | 118.35287 | 34921 ft | 517 kts | 135° |
| 2026-05-03 20:37 | 18.48344 | 118.40794 | 34927 ft | 517 kts | 135° |
| 2026-05-03 20:37 | 18.43468 | 118.46294 | 34929 ft | 517 kts | 135° |
| 2026-05-03 20:38 | 18.38559 | 118.51827 | 34922 ft | 517 kts | 135° |
| 2026-05-03 20:38 | 18.33642 | 118.57363 | 34922 ft | 517 kts | 135° |
| 2026-05-03 20:39 | 18.28728 | 118.62891 | 34924 ft | 517 kts | 135° |
| 2026-05-03 20:39 | 18.23807 | 118.68423 | 34914 ft | 517 kts | 136° |
| 2026-05-03 20:40 | 18.18881 | 118.73953 | 34919 ft | 517 kts | 136° |
| 2026-05-03 20:40 | 18.13957 | 118.79478 | 34916 ft | 517 kts | 136° |
| 2026-05-03 20:41 | 18.09035 | 118.84996 | 34912 ft | 517 kts | 136° |
| 2026-05-03 20:41 | 18.04141 | 118.90478 | 34916 ft | 517 kts | 136° |
| 2026-05-03 20:42 | 17.98970 | 118.95704 | 34916 ft | 512 kts | 146° |
| 2026-05-03 20:42 | 17.92947 | 118.99629 | 34914 ft | 509 kts | 153° |
| 2026-05-03 20:43 | 17.86789 | 119.03210 | 34914 ft | 508 kts | 154° |
| 2026-05-03 20:43 | 17.80578 | 119.06763 | 34912 ft | 508 kts | 154° |
| 2026-05-03 20:44 | 17.74369 | 119.10335 | 34908 ft | 509 kts | 154° |
| 2026-05-03 20:44 | 17.68167 | 119.13919 | 34909 ft | 509 kts | 154° |
| 2026-05-03 20:45 | 17.61965 | 119.17507 | 34905 ft | 509 kts | 154° |
| 2026-05-03 20:45 | 17.55750 | 119.21099 | 34905 ft | 509 kts | 154° |
| 2026-05-03 20:46 | 17.49548 | 119.24680 | 34913 ft | 509 kts | 154° |
| 2026-05-03 20:46 | 17.43340 | 119.28261 | 34905 ft | 509 kts | 154° |
| 2026-05-03 20:47 | 17.37171 | 119.31816 | 34902 ft | 510 kts | 154° |
| 2026-05-03 20:47 | 17.30951 | 119.35398 | 34903 ft | 510 kts | 154° |
| 2026-05-03 20:48 | 17.24737 | 119.38974 | 34907 ft | 510 kts | 154° |
| 2026-05-03 20:48 | 17.18519 | 119.42550 | 34906 ft | 510 kts | 154° |
| 2026-05-03 20:49 | 17.13357 | 119.45516 | 34903 ft | 510 kts | 154° |
| 2026-05-03 20:49 | 17.07125 | 119.49094 | 34898 ft | 510 kts | 154° |
| 2026-05-03 20:50 | 17.00895 | 119.52669 | 34903 ft | 510 kts | 154° |
| 2026-05-03 20:50 | 16.94669 | 119.56238 | 34903 ft | 511 kts | 154° |
| 2026-05-03 20:51 | 16.88478 | 119.59785 | 34901 ft | 511 kts | 154° |
| 2026-05-03 20:51 | 16.82232 | 119.63361 | 34903 ft | 511 kts | 154° |
| 2026-05-03 20:52 | 16.76009 | 119.66921 | 34896 ft | 511 kts | 154° |
| 2026-05-03 20:52 | 16.69771 | 119.70486 | 34901 ft | 511 kts | 154° |
| 2026-05-03 20:53 | 16.63538 | 119.74046 | 34898 ft | 511 kts | 154° |
| 2026-05-03 20:53 | 16.57300 | 119.77606 | 34900 ft | 511 kts | 154° |
| 2026-05-03 20:54 | 16.51099 | 119.81143 | 34903 ft | 511 kts | 154° |
| 2026-05-03 20:54 | 16.41737 | 119.86478 | 34908 ft | 511 kts | 154° |
| 2026-05-03 20:55 | 16.35491 | 119.90033 | 34914 ft | 511 kts | 154° |
| 2026-05-03 20:55 | 16.29250 | 119.93583 | 34914 ft | 511 kts | 154° |
| 2026-05-03 20:56 | 16.23006 | 119.97132 | 34914 ft | 511 kts | 154° |
| 2026-05-03 20:56 | 16.16758 | 120.00682 | 34914 ft | 511 kts | 154° |
| 2026-05-03 20:57 | 16.10543 | 120.04209 | 34914 ft | 511 kts | 154° |
| 2026-05-03 20:57 | 16.04288 | 120.07757 | 34921 ft | 512 kts | 154° |
| 2026-05-03 20:58 | 15.98033 | 120.11302 | 34924 ft | 512 kts | 154° |
| 2026-05-03 20:58 | 15.91770 | 120.14850 | 34927 ft | 512 kts | 154° |
| 2026-05-03 20:59 | 15.85517 | 120.18389 | 34932 ft | 512 kts | 154° |
| 2026-05-03 20:59 | 15.79258 | 120.21929 | 34939 ft | 512 kts | 154° |
| 2026-05-03 21:00 | 15.74065 | 120.24862 | 34939 ft | 511 kts | 154° |
| 2026-05-03 21:00 | 15.66796 | 120.28970 | 34944 ft | 511 kts | 154° |
| 2026-05-03 21:01 | 15.60548 | 120.32502 | 34948 ft | 511 kts | 154° |
| 2026-05-03 21:01 | 15.54296 | 120.36025 | 34948 ft | 511 kts | 154° |
| 2026-05-03 21:02 | 15.48046 | 120.39551 | 34950 ft | 511 kts | 154° |
| 2026-05-03 21:02 | 15.41793 | 120.43073 | 34943 ft | 511 kts | 154° |
| 2026-05-03 21:03 | 15.35540 | 120.46594 | 34943 ft | 511 kts | 154° |
| 2026-05-03 21:03 | 15.29306 | 120.50095 | 34939 ft | 511 kts | 154° |
| 2026-05-03 21:04 | 15.23048 | 120.53609 | 34939 ft | 511 kts | 154° |
| 2026-05-03 21:04 | 15.16810 | 120.57141 | 34937 ft | 512 kts | 152° |
| 2026-05-03 21:05 | 15.10814 | 120.61150 | 34939 ft | 513 kts | 148° |
| 2026-05-03 21:05 | 15.04959 | 120.65310 | 34936 ft | 512 kts | 148° |
| 2026-05-03 21:06 | 14.99046 | 120.69428 | 34935 ft | 511 kts | 148° |
| 2026-05-03 21:06 | 14.93115 | 120.73483 | 34934 ft | 511 kts | 148° |
| 2026-05-03 21:07 | 14.87194 | 120.77504 | 34924 ft | 511 kts | 149° |
| 2026-05-03 21:07 | 14.81236 | 120.81540 | 34925 ft | 511 kts | 149° |
| 2026-05-03 21:08 | 14.75283 | 120.85576 | 34926 ft | 511 kts | 149° |
| 2026-05-03 21:08 | 14.69340 | 120.89610 | 34924 ft | 510 kts | 148° |
| 2026-05-03 21:09 | 14.63448 | 120.93607 | 34922 ft | 509 kts | 149° |
| 2026-05-03 21:09 | 14.57504 | 120.97629 | 34939 ft | 509 kts | 148° |
| 2026-05-03 21:10 | 14.51686 | 121.01789 | 34938 ft | 510 kts | 141° |
| 2026-05-03 21:10 | 14.46765 | 121.07093 | 34939 ft | 512 kts | 132° |
| 2026-05-03 21:11 | 14.42181 | 121.12724 | 34938 ft | 513 kts | 131° |
| 2026-05-03 21:11 | 14.37638 | 121.18409 | 34932 ft | 513 kts | 131° |
| 2026-05-03 21:12 | 14.33094 | 121.24064 | 34931 ft | 512 kts | 131° |
| 2026-05-03 21:12 | 14.28572 | 121.29672 | 34924 ft | 510 kts | 131° |
| 2026-05-03 21:13 | 14.24017 | 121.35287 | 34929 ft | 510 kts | 131° |
| 2026-05-03 21:13 | 14.19455 | 121.40907 | 34926 ft | 510 kts | 131° |
| 2026-05-03 21:14 | 14.14924 | 121.46491 | 34925 ft | 510 kts | 131° |
| 2026-05-03 21:14 | 14.10409 | 121.52061 | 34926 ft | 510 kts | 131° |
| 2026-05-03 21:15 | 14.05853 | 121.57665 | 34928 ft | 508 kts | 132° |
| 2026-05-03 21:15 | 14.01313 | 121.63245 | 34921 ft | 508 kts | 132° |
| 2026-05-03 21:16 | 13.96784 | 121.68812 | 34922 ft | 507 kts | 132° |
| 2026-05-03 21:16 | 13.92255 | 121.74376 | 34915 ft | 507 kts | 132° |
| 2026-05-03 21:17 | 13.88484 | 121.79005 | 34919 ft | 507 kts | 132° |
| 2026-05-03 21:17 | 13.83191 | 121.85496 | 34917 ft | 506 kts | 132° |
| 2026-05-03 21:18 | 13.78693 | 121.91011 | 34915 ft | 506 kts | 132° |
| 2026-05-03 21:18 | 13.74165 | 121.96560 | 34916 ft | 506 kts | 132° |
| 2026-05-03 21:19 | 13.69636 | 122.02106 | 34915 ft | 506 kts | 132° |
| 2026-05-03 21:19 | 13.65101 | 122.07653 | 34914 ft | 506 kts | 131° |
| 2026-05-03 21:20 | 13.60576 | 122.13187 | 34917 ft | 505 kts | 131° |
| 2026-05-03 21:20 | 13.56053 | 122.18714 | 34912 ft | 505 kts | 131° |
| 2026-05-03 21:21 | 13.51528 | 122.24239 | 34915 ft | 505 kts | 131° |
| 2026-05-03 21:21 | 13.47029 | 122.29730 | 34914 ft | 505 kts | 131° |
| 2026-05-03 21:22 | 13.42501 | 122.35252 | 34908 ft | 505 kts | 131° |
| 2026-05-03 21:22 | 13.37960 | 122.40786 | 34911 ft | 507 kts | 131° |
| 2026-05-03 21:23 | 13.33409 | 122.46328 | 34909 ft | 507 kts | 131° |
| 2026-05-03 21:23 | 13.28893 | 122.51826 | 34912 ft | 507 kts | 131° |
| 2026-05-03 21:24 | 13.24354 | 122.57348 | 34912 ft | 504 kts | 131° |
| 2026-05-03 21:24 | 13.19834 | 122.62844 | 34911 ft | 503 kts | 131° |
| 2026-05-03 21:25 | 13.15317 | 122.68331 | 34911 ft | 502 kts | 131° |
| 2026-05-03 21:25 | 13.10802 | 122.73812 | 34906 ft | 502 kts | 131° |
| 2026-05-03 21:26 | 13.06286 | 122.79291 | 34907 ft | 502 kts | 131° |
| 2026-05-03 21:26 | 13.01774 | 122.84763 | 34912 ft | 502 kts | 131° |
| 2026-05-03 21:27 | 12.97286 | 122.90202 | 34908 ft | 502 kts | 131° |
| 2026-05-03 21:27 | 12.92776 | 122.95664 | 34907 ft | 502 kts | 131° |
| 2026-05-03 21:28 | 12.88263 | 123.01127 | 34907 ft | 502 kts | 131° |
| 2026-05-03 21:28 | 12.83746 | 123.06591 | 34911 ft | 502 kts | 131° |
| 2026-05-03 21:29 | 12.79237 | 123.12042 | 34908 ft | 502 kts | 131° |
| 2026-05-03 21:29 | 12.74720 | 123.17500 | 34911 ft | 502 kts | 131° |
| 2026-05-03 21:30 | 12.70203 | 123.22954 | 34906 ft | 502 kts | 131° |
| 2026-05-03 21:30 | 12.65682 | 123.28410 | 34911 ft | 502 kts | 131° |
| 2026-05-03 21:31 | 12.61178 | 123.33842 | 34906 ft | 502 kts | 131° |
| 2026-05-03 21:31 | 12.56657 | 123.39290 | 34906 ft | 502 kts | 131° |
| 2026-05-03 21:32 | 12.52143 | 123.44729 | 34909 ft | 501 kts | 131° |
| 2026-05-03 21:32 | 12.47663 | 123.50122 | 34904 ft | 500 kts | 131° |
| 2026-05-03 21:33 | 12.43156 | 123.55545 | 34908 ft | 500 kts | 131° |
| 2026-05-03 21:33 | 12.38650 | 123.60963 | 34911 ft | 500 kts | 131° |
| 2026-05-03 21:34 | 12.34161 | 123.66395 | 34910 ft | 500 kts | 130° |
| 2026-05-03 21:34 | 12.29737 | 123.71875 | 34906 ft | 500 kts | 130° |
| 2026-05-03 21:35 | 12.25309 | 123.77372 | 34904 ft | 499 kts | 130° |
| 2026-05-03 21:35 | 12.20883 | 123.82845 | 34909 ft | 499 kts | 130° |
| 2026-05-03 21:36 | 12.17202 | 123.87385 | 34905 ft | 499 kts | 130° |
| 2026-05-03 21:36 | 12.12774 | 123.92841 | 34904 ft | 498 kts | 130° |
| 2026-05-03 21:37 | 12.08345 | 123.98296 | 34902 ft | 498 kts | 130° |
| 2026-05-03 21:37 | 12.03194 | 124.04636 | 34904 ft | 499 kts | 130° |
| 2026-05-03 21:38 | 11.99478 | 124.09208 | 34903 ft | 499 kts | 130° |
| 2026-05-03 21:38 | 11.95074 | 124.14624 | 34903 ft | 499 kts | 130° |
| 2026-05-03 21:39 | 11.90633 | 124.20083 | 34900 ft | 499 kts | 130° |
| 2026-05-03 21:39 | 11.86196 | 124.25533 | 34906 ft | 498 kts | 130° |
| 2026-05-03 21:40 | 11.81767 | 124.30980 | 34901 ft | 499 kts | 130° |
| 2026-05-03 21:40 | 11.77320 | 124.36432 | 34901 ft | 499 kts | 130° |
| 2026-05-03 21:41 | 11.72903 | 124.41844 | 34898 ft | 500 kts | 130° |
| 2026-05-03 21:41 | 11.68454 | 124.47296 | 34901 ft | 499 kts | 130° |
| 2026-05-03 21:42 | 11.63998 | 124.52753 | 34901 ft | 500 kts | 130° |
| 2026-05-03 21:42 | 11.59537 | 124.58216 | 34902 ft | 501 kts | 131° |
| 2026-05-03 21:43 | 11.55086 | 124.63663 | 34907 ft | 500 kts | 130° |
| 2026-05-03 21:43 | 11.50617 | 124.69128 | 34921 ft | 501 kts | 130° |
| 2026-05-03 21:44 | 11.46160 | 124.74584 | 34909 ft | 501 kts | 130° |
| 2026-05-03 21:44 | 11.41688 | 124.80043 | 34911 ft | 502 kts | 130° |
| 2026-05-03 21:45 | 11.37235 | 124.85475 | 34911 ft | 502 kts | 130° |
| 2026-05-03 21:45 | 11.32763 | 124.90930 | 34909 ft | 502 kts | 130° |
| 2026-05-03 21:46 | 11.28271 | 124.96409 | 34908 ft | 502 kts | 130° |
| 2026-05-03 21:46 | 11.23959 | 125.02003 | 34902 ft | 503 kts | 122° |
| 2026-05-03 21:47 | 11.20899 | 125.08403 | 34912 ft | 503 kts | 113° |
| 2026-05-03 21:47 | 11.18288 | 125.15023 | 34904 ft | 504 kts | 111° |
| 2026-05-03 21:48 | 11.15756 | 125.21631 | 34908 ft | 504 kts | 111° |
| 2026-05-03 21:48 | 11.13194 | 125.28266 | 34905 ft | 504 kts | 112° |
| 2026-05-03 21:49 | 11.10610 | 125.34899 | 34902 ft | 504 kts | 112° |
| 2026-05-03 21:49 | 11.08018 | 125.41533 | 34908 ft | 504 kts | 112° |
| 2026-05-03 21:50 | 11.05429 | 125.48167 | 34908 ft | 504 kts | 112° |
| 2026-05-03 21:50 | 11.02851 | 125.54748 | 34906 ft | 504 kts | 112° |
| 2026-05-03 21:51 | 11.00249 | 125.61388 | 34914 ft | 504 kts | 112° |
| 2026-05-03 21:51 | 10.97648 | 125.68025 | 34899 ft | 504 kts | 112° |
| 2026-05-03 21:52 | 10.95049 | 125.74656 | 34902 ft | 504 kts | 112° |
| 2026-05-03 21:52 | 10.92450 | 125.81293 | 34896 ft | 505 kts | 112° |
| 2026-05-03 21:53 | 10.89840 | 125.87941 | 34914 ft | 505 kts | 112° |
| 2026-05-03 21:53 | 10.87241 | 125.94546 | 34917 ft | 505 kts | 112° |
| 2026-05-03 21:54 | 10.84630 | 126.01180 | 34916 ft | 505 kts | 112° |
| 2026-05-03 21:54 | 10.82021 | 126.07809 | 34903 ft | 505 kts | 112° |
| 2026-05-03 21:55 | 10.79405 | 126.14454 | 34905 ft | 505 kts | 112° |
| 2026-05-03 21:55 | 10.76790 | 126.21090 | 34917 ft | 505 kts | 112° |
| 2026-05-03 21:56 | 10.74174 | 126.27722 | 34914 ft | 505 kts | 112° |
| 2026-05-03 21:56 | 10.71550 | 126.34372 | 34915 ft | 506 kts | 112° |
| 2026-05-03 21:57 | 10.68941 | 126.40977 | 34905 ft | 506 kts | 112° |
| 2026-05-03 21:57 | 10.66315 | 126.47622 | 34905 ft | 506 kts | 112° |
| 2026-05-03 21:58 | 10.63692 | 126.54254 | 34913 ft | 505 kts | 112° |
| 2026-05-03 21:58 | 10.61073 | 126.60872 | 34915 ft | 504 kts | 112° |
| 2026-05-03 21:59 | 10.58456 | 126.67479 | 34917 ft | 503 kts | 112° |
| 2026-05-03 21:59 | 10.55843 | 126.74072 | 34901 ft | 503 kts | 112° |
| 2026-05-03 22:00 | 10.53230 | 126.80663 | 34914 ft | 503 kts | 112° |
| 2026-05-03 22:00 | 10.50607 | 126.87273 | 34915 ft | 503 kts | 112° |
| 2026-05-03 22:01 | 10.48003 | 126.93830 | 34900 ft | 503 kts | 112° |
| 2026-05-03 22:01 | 10.45381 | 127.00426 | 34903 ft | 503 kts | 112° |
| 2026-05-03 22:02 | 10.42759 | 127.07021 | 34908 ft | 502 kts | 112° |
| 2026-05-03 22:02 | 10.40135 | 127.13614 | 34910 ft | 502 kts | 112° |
| 2026-05-03 22:03 | 10.37516 | 127.20192 | 34912 ft | 502 kts | 112° |
| 2026-05-03 22:03 | 10.34896 | 127.26766 | 34902 ft | 501 kts | 112° |
| 2026-05-03 22:04 | 10.32301 | 127.33274 | 34896 ft | 499 kts | 112° |
| 2026-05-03 22:04 | 10.29692 | 127.39812 | 34908 ft | 499 kts | 112° |
| 2026-05-03 22:05 | 10.27082 | 127.46350 | 34907 ft | 499 kts | 112° |
| 2026-05-03 22:05 | 10.24471 | 127.52884 | 34908 ft | 498 kts | 112° |
| 2026-05-03 22:06 | 10.21871 | 127.59388 | 34912 ft | 497 kts | 112° |
| 2026-05-03 22:06 | 10.19271 | 127.65887 | 34897 ft | 496 kts | 112° |
| 2026-05-03 22:07 | 10.16671 | 127.72380 | 34906 ft | 497 kts | 112° |
| 2026-05-03 22:07 | 10.14070 | 127.78872 | 34908 ft | 497 kts | 112° |
| 2026-05-03 22:08 | 10.11483 | 127.85327 | 34911 ft | 496 kts | 112° |
| 2026-05-03 22:08 | 10.08876 | 127.91825 | 34910 ft | 497 kts | 112° |
| 2026-05-03 22:09 | 10.06276 | 127.98304 | 34896 ft | 496 kts | 112° |
| 2026-05-03 22:10 | 10.02360 | 128.08051 | 34909 ft | 497 kts | 112° |
| 2026-05-03 22:10 | 9.99770 | 128.14492 | 34908 ft | 496 kts | 112° |
| 2026-05-03 22:11 | 9.97159 | 128.20981 | 34908 ft | 497 kts | 112° |
| 2026-05-03 22:11 | 9.94547 | 128.27472 | 34905 ft | 497 kts | 112° |
| 2026-05-03 22:12 | 9.91930 | 128.33969 | 34910 ft | 496 kts | 112° |
| 2026-05-03 22:12 | 9.89314 | 128.40460 | 34910 ft | 497 kts | 112° |
| 2026-05-03 22:13 | 9.86699 | 128.46943 | 34910 ft | 497 kts | 112° |
| 2026-05-03 22:13 | 9.84080 | 128.53431 | 34910 ft | 497 kts | 112° |
| 2026-05-03 22:14 | 9.81458 | 128.59924 | 34892 ft | 497 kts | 112° |
| 2026-05-03 22:14 | 9.78838 | 128.66408 | 34921 ft | 496 kts | 112° |
| 2026-05-03 22:15 | 9.76217 | 128.72890 | 34906 ft | 497 kts | 112° |
| 2026-05-03 22:15 | 9.73590 | 128.79384 | 34903 ft | 498 kts | 112° |
| 2026-05-03 22:16 | 9.70979 | 128.85831 | 34902 ft | 497 kts | 112° |
| 2026-05-03 22:16 | 9.68357 | 128.92303 | 34908 ft | 496 kts | 111° |
| 2026-05-03 22:17 | 9.65731 | 128.98784 | 34903 ft | 497 kts | 111° |
| 2026-05-03 22:17 | 9.63105 | 129.05259 | 34900 ft | 496 kts | 112° |
| 2026-05-03 22:18 | 9.60477 | 129.11733 | 34904 ft | 497 kts | 112° |
| 2026-05-03 22:18 | 9.57847 | 129.18209 | 34901 ft | 497 kts | 111° |
| 2026-05-03 22:19 | 9.55212 | 129.24694 | 34898 ft | 497 kts | 111° |
| 2026-05-03 22:19 | 9.52575 | 129.31179 | 34902 ft | 497 kts | 111° |
| 2026-05-03 22:20 | 9.50384 | 129.36566 | 34902 ft | 497 kts | 111° |
| 2026-05-03 22:20 | 9.47317 | 129.44099 | 34902 ft | 497 kts | 111° |
| 2026-05-03 22:21 | 9.44675 | 129.50585 | 34901 ft | 498 kts | 111° |
| 2026-05-03 22:21 | 9.42033 | 129.57068 | 34906 ft | 497 kts | 112° |
| 2026-05-03 22:22 | 9.39390 | 129.63548 | 34900 ft | 497 kts | 111° |
| 2026-05-03 22:22 | 9.37194 | 129.68932 | 34898 ft | 498 kts | 112° |
| 2026-05-03 22:23 | 9.34547 | 129.75416 | 34904 ft | 498 kts | 111° |
| 2026-05-03 22:23 | 9.31899 | 129.81898 | 34900 ft | 498 kts | 111° |
| 2026-05-03 22:24 | 9.29245 | 129.88392 | 34902 ft | 498 kts | 112° |
| 2026-05-03 22:24 | 9.26595 | 129.94871 | 34898 ft | 498 kts | 112° |
| 2026-05-03 22:25 | 9.24237 | 130.01395 | 35266 ft | 493 kts | 104° |
| 2026-05-03 22:25 | 9.23359 | 130.04730 | 35522 ft | 491 kts | 104° |
| 2026-05-03 22:25 | 9.22515 | 130.08095 | 35604 ft | 493 kts | 103° |
| 2026-05-03 22:25 | 9.21696 | 130.11463 | 35812 ft | 491 kts | 103° |
| 2026-05-03 22:26 | 9.20889 | 130.14827 | 35999 ft | 491 kts | 103° |
| 2026-05-03 22:26 | 9.20085 | 130.18185 | 36137 ft | 491 kts | 103° |
| 2026-05-03 22:26 | 9.19280 | 130.21537 | 36332 ft | 489 kts | 103° |
| 2026-05-03 22:26 | 9.18475 | 130.24883 | 36458 ft | 490 kts | 103° |
| 2026-05-03 22:27 | 9.17664 | 130.28239 | 36550 ft | 491 kts | 104° |
| 2026-05-03 22:27 | 9.16852 | 130.31591 | 36700 ft | 491 kts | 104° |
| 2026-05-03 22:27 | 9.16039 | 130.34945 | 36813 ft | 491 kts | 104° |
| 2026-05-03 22:28 | 9.14417 | 130.41622 | 36897 ft | 494 kts | 104° |
| 2026-05-03 22:28 | 9.12768 | 130.48407 | 36899 ft | 496 kts | 104° |
| 2026-05-03 22:29 | 9.11121 | 130.55178 | 36901 ft | 495 kts | 104° |
| 2026-05-03 22:29 | 9.09472 | 130.61955 | 36903 ft | 495 kts | 104° |
| 2026-05-03 22:30 | 9.07823 | 130.68725 | 36897 ft | 495 kts | 104° |
| 2026-05-03 22:30 | 9.06173 | 130.75493 | 36899 ft | 495 kts | 104° |
| 2026-05-03 22:31 | 9.04534 | 130.82209 | 36901 ft | 495 kts | 104° |
| 2026-05-03 22:31 | 9.02883 | 130.88972 | 36901 ft | 495 kts | 104° |
| 2026-05-03 22:32 | 9.01230 | 130.95739 | 36891 ft | 493 kts | 104° |
| 2026-05-03 22:32 | 8.99588 | 131.02453 | 36890 ft | 491 kts | 104° |
| 2026-05-03 22:33 | 8.97943 | 131.09171 | 36908 ft | 491 kts | 104° |
| 2026-05-03 22:33 | 8.96300 | 131.15879 | 36892 ft | 491 kts | 104° |
| 2026-05-03 22:34 | 8.94653 | 131.22596 | 36906 ft | 492 kts | 104° |
| 2026-05-03 22:34 | 8.93013 | 131.29276 | 36908 ft | 492 kts | 104° |
| 2026-05-03 22:35 | 8.91365 | 131.35990 | 36891 ft | 492 kts | 104° |
| 2026-05-03 22:35 | 8.89715 | 131.42700 | 36890 ft | 492 kts | 104° |
| 2026-05-03 22:36 | 8.88059 | 131.49430 | 36904 ft | 492 kts | 104° |
| 2026-05-03 22:36 | 8.86417 | 131.56099 | 36904 ft | 492 kts | 104° |
| 2026-05-03 22:37 | 8.84766 | 131.62800 | 36896 ft | 491 kts | 105° |
| 2026-05-03 22:37 | 8.83112 | 131.69509 | 36905 ft | 491 kts | 105° |
| 2026-05-03 22:38 | 8.81456 | 131.76219 | 36906 ft | 491 kts | 105° |
| 2026-05-03 22:38 | 8.79802 | 131.82913 | 36892 ft | 491 kts | 105° |
| 2026-05-03 22:39 | 8.78145 | 131.89616 | 36894 ft | 491 kts | 105° |
| 2026-05-03 22:39 | 8.76502 | 131.96260 | 36902 ft | 491 kts | 105° |
| 2026-05-03 22:40 | 8.74844 | 132.02955 | 36906 ft | 490 kts | 105° |
| 2026-05-03 22:40 | 8.73185 | 132.09649 | 36888 ft | 490 kts | 105° |
| 2026-05-03 22:41 | 8.71527 | 132.16335 | 36906 ft | 490 kts | 105° |
| 2026-05-03 22:41 | 8.69866 | 132.23027 | 36904 ft | 490 kts | 105° |
| 2026-05-03 22:42 | 8.68205 | 132.29717 | 36887 ft | 490 kts | 105° |
| 2026-05-03 22:42 | 8.66547 | 132.36383 | 36887 ft | 490 kts | 105° |
| 2026-05-03 22:43 | 8.64884 | 132.43071 | 36902 ft | 489 kts | 105° |
| 2026-05-03 22:43 | 8.63235 | 132.49694 | 36901 ft | 489 kts | 105° |
| 2026-05-03 22:44 | 8.61573 | 132.56363 | 36892 ft | 489 kts | 105° |
| 2026-05-03 22:44 | 8.59912 | 132.63024 | 36906 ft | 489 kts | 104° |
| 2026-05-03 22:45 | 8.58254 | 132.69670 | 36903 ft | 488 kts | 104° |
| 2026-05-03 22:45 | 8.56591 | 132.76329 | 36902 ft | 488 kts | 104° |
| 2026-05-03 22:46 | 8.54928 | 132.82981 | 36904 ft | 488 kts | 104° |
| 2026-05-03 22:46 | 8.53265 | 132.89629 | 36895 ft | 488 kts | 104° |
| 2026-05-03 22:47 | 8.51611 | 132.96238 | 36902 ft | 488 kts | 104° |
| 2026-05-03 22:47 | 8.49945 | 133.02886 | 36888 ft | 488 kts | 104° |
| 2026-05-03 22:48 | 8.48279 | 133.09534 | 36906 ft | 488 kts | 104° |
| 2026-05-03 22:48 | 8.46612 | 133.16175 | 36899 ft | 488 kts | 104° |
| 2026-05-03 22:49 | 8.44942 | 133.22827 | 36904 ft | 488 kts | 104° |
| 2026-05-03 22:49 | 8.43273 | 133.29470 | 36908 ft | 488 kts | 104° |
| 2026-05-03 22:50 | 8.41603 | 133.36111 | 36904 ft | 487 kts | 104° |
| 2026-05-03 22:50 | 8.39941 | 133.42716 | 36905 ft | 487 kts | 104° |
| 2026-05-03 22:51 | 8.38270 | 133.49348 | 36905 ft | 487 kts | 104° |
| 2026-05-03 22:51 | 8.36598 | 133.55983 | 36893 ft | 487 kts | 104° |
| 2026-05-03 22:52 | 8.34927 | 133.62611 | 36903 ft | 487 kts | 104° |
| 2026-05-03 22:52 | 8.33253 | 133.69241 | 36902 ft | 487 kts | 104° |
| 2026-05-03 22:53 | 8.31581 | 133.75861 | 36893 ft | 487 kts | 104° |
| 2026-05-03 22:53 | 8.29907 | 133.82483 | 36908 ft | 487 kts | 104° |
| 2026-05-03 22:54 | 8.28244 | 133.89058 | 36906 ft | 486 kts | 104° |
| 2026-05-03 22:54 | 8.26565 | 133.95687 | 36908 ft | 487 kts | 104° |
| 2026-05-03 22:55 | 8.24889 | 134.02304 | 36907 ft | 487 kts | 104° |
| 2026-05-03 22:55 | 8.23208 | 134.08933 | 36894 ft | 487 kts | 104° |
| 2026-05-03 22:56 | 8.21525 | 134.15567 | 36893 ft | 487 kts | 104° |
| 2026-05-03 22:56 | 8.19841 | 134.22201 | 36907 ft | 488 kts | 104° |
| 2026-05-03 22:57 | 8.18155 | 134.28834 | 36908 ft | 488 kts | 104° |
| 2026-05-03 22:57 | 8.16468 | 134.35470 | 36892 ft | 488 kts | 104° |
| 2026-05-03 22:58 | 8.14780 | 134.42105 | 36907 ft | 488 kts | 104° |
| 2026-05-03 22:58 | 8.13103 | 134.48690 | 36890 ft | 488 kts | 104° |
| 2026-05-03 22:59 | 8.11415 | 134.55316 | 36892 ft | 488 kts | 104° |
| 2026-05-03 22:59 | 8.09724 | 134.61945 | 36896 ft | 488 kts | 104° |
| 2026-05-03 23:00 | 8.08026 | 134.68598 | 36891 ft | 489 kts | 104° |
| 2026-05-03 23:00 | 8.06329 | 134.75244 | 36905 ft | 489 kts | 104° |
| 2026-05-03 23:01 | 8.04632 | 134.81885 | 36906 ft | 488 kts | 104° |
| 2026-05-03 23:01 | 8.02932 | 134.88533 | 36891 ft | 489 kts | 104° |
| 2026-05-03 23:02 | 8.01231 | 134.95182 | 36897 ft | 490 kts | 104° |
| 2026-05-03 23:02 | 7.98919 | 135.01610 | 36904 ft | 489 kts | 118° |
| 2026-05-03 23:03 | 7.95576 | 135.07590 | 36900 ft | 489 kts | 120° |
| 2026-05-03 23:03 | 7.92101 | 135.13435 | 36908 ft | 489 kts | 121° |
| 2026-05-03 23:04 | 7.88582 | 135.19320 | 36888 ft | 490 kts | 120° |
| 2026-05-03 23:04 | 7.85084 | 135.25207 | 36902 ft | 489 kts | 120° |
| 2026-05-03 23:05 | 7.81586 | 135.31113 | 36891 ft | 489 kts | 120° |
| 2026-05-03 23:05 | 7.78098 | 135.37006 | 36887 ft | 490 kts | 120° |
| 2026-05-03 23:06 | 7.74596 | 135.42917 | 36908 ft | 491 kts | 121° |
| 2026-05-03 23:06 | 7.71082 | 135.48845 | 36888 ft | 492 kts | 121° |
| 2026-05-03 23:07 | 7.67589 | 135.54734 | 36907 ft | 492 kts | 121° |
| 2026-05-03 23:07 | 7.64077 | 135.60655 | 36888 ft | 493 kts | 121° |
| 2026-05-03 23:08 | 7.60549 | 135.66600 | 36904 ft | 493 kts | 121° |
| 2026-05-03 23:08 | 7.57018 | 135.72545 | 36903 ft | 496 kts | 120° |
| 2026-05-03 23:09 | 7.53461 | 135.78536 | 36885 ft | 497 kts | 120° |
| 2026-05-03 23:09 | 7.49902 | 135.84526 | 36900 ft | 498 kts | 120° |
| 2026-05-03 23:10 | 7.46361 | 135.90484 | 36904 ft | 498 kts | 120° |
| 2026-05-03 23:10 | 7.43378 | 135.95500 | 36902 ft | 498 kts | 120° |
| 2026-05-03 23:11 | 7.39812 | 136.01496 | 36900 ft | 498 kts | 120° |
| 2026-05-03 23:11 | 7.36264 | 136.07457 | 36886 ft | 500 kts | 120° |
| 2026-05-03 23:12 | 7.32682 | 136.13476 | 36887 ft | 501 kts | 120° |
| 2026-05-03 23:12 | 7.29100 | 136.19491 | 36903 ft | 501 kts | 120° |
| 2026-05-03 23:13 | 7.25519 | 136.25502 | 36889 ft | 500 kts | 120° |
| 2026-05-03 23:13 | 7.21939 | 136.31510 | 36883 ft | 500 kts | 120° |
| 2026-05-03 23:14 | 7.18351 | 136.37528 | 36896 ft | 500 kts | 120° |
| 2026-05-03 23:14 | 7.14795 | 136.43489 | 36896 ft | 499 kts | 120° |
| 2026-05-03 23:15 | 7.11214 | 136.49492 | 36881 ft | 500 kts | 120° |
| 2026-05-03 23:15 | 7.07631 | 136.55495 | 36895 ft | 500 kts | 120° |
| 2026-05-03 23:16 | 7.04047 | 136.61498 | 36899 ft | 500 kts | 120° |
| 2026-05-03 23:16 | 7.00450 | 136.67520 | 36881 ft | 500 kts | 120° |
| 2026-05-03 23:17 | 6.96854 | 136.73539 | 36898 ft | 501 kts | 120° |
| 2026-05-03 23:17 | 6.93290 | 136.79501 | 36881 ft | 500 kts | 120° |
| 2026-05-03 23:18 | 6.89713 | 136.85482 | 36895 ft | 499 kts | 120° |
| 2026-05-03 23:18 | 6.86132 | 136.91470 | 36899 ft | 499 kts | 120° |
| 2026-05-03 23:19 | 6.82558 | 136.97442 | 36883 ft | 499 kts | 120° |
| 2026-05-03 23:19 | 6.78974 | 137.03429 | 36882 ft | 499 kts | 120° |
| 2026-05-03 23:20 | 6.75387 | 137.09420 | 36899 ft | 499 kts | 120° |
| 2026-05-03 23:20 | 6.71828 | 137.15362 | 36897 ft | 498 kts | 120° |
| 2026-05-03 23:21 | 6.68248 | 137.21335 | 36887 ft | 498 kts | 120° |
| 2026-05-03 23:21 | 6.64670 | 137.27305 | 36879 ft | 498 kts | 120° |
| 2026-05-03 23:22 | 6.59301 | 137.36257 | 36882 ft | 498 kts | 120° |
| 2026-05-03 23:22 | 6.55719 | 137.42230 | 36878 ft | 499 kts | 120° |
| 2026-05-03 23:23 | 6.52132 | 137.48206 | 36898 ft | 499 kts | 120° |
| 2026-05-03 23:23 | 6.48536 | 137.54195 | 36903 ft | 499 kts | 120° |
| 2026-05-03 23:24 | 6.44968 | 137.60136 | 36881 ft | 499 kts | 120° |
| 2026-05-03 23:24 | 6.41378 | 137.66112 | 36896 ft | 498 kts | 120° |
| 2026-05-03 23:25 | 6.37795 | 137.72075 | 36901 ft | 498 kts | 120° |
| 2026-05-03 23:25 | 6.34207 | 137.78044 | 36900 ft | 498 kts | 120° |
| 2026-05-03 23:26 | 6.30642 | 137.83971 | 36881 ft | 498 kts | 120° |
| 2026-05-03 23:26 | 6.27064 | 137.89919 | 36899 ft | 497 kts | 120° |
| 2026-05-03 23:27 | 6.23480 | 137.95876 | 36905 ft | 497 kts | 120° |
| 2026-05-03 23:27 | 6.19898 | 138.01826 | 36890 ft | 497 kts | 120° |
| 2026-05-03 23:28 | 6.16320 | 138.07769 | 36883 ft | 496 kts | 120° |
| 2026-05-03 23:28 | 6.12748 | 138.13699 | 36901 ft | 496 kts | 120° |
| 2026-05-03 23:29 | 6.09176 | 138.19628 | 36905 ft | 496 kts | 120° |
| 2026-05-03 23:29 | 6.05600 | 138.25561 | 36886 ft | 496 kts | 120° |
| 2026-05-03 23:30 | 6.02051 | 138.31447 | 36904 ft | 495 kts | 120° |
| 2026-05-03 23:30 | 5.98482 | 138.37367 | 36904 ft | 495 kts | 120° |
| 2026-05-03 23:31 | 5.94912 | 138.43283 | 36901 ft | 495 kts | 120° |
| 2026-05-03 23:31 | 5.91341 | 138.49202 | 36902 ft | 495 kts | 120° |
| 2026-05-03 23:32 | 5.87775 | 138.55109 | 36904 ft | 495 kts | 120° |
| 2026-05-03 23:32 | 5.84203 | 138.61025 | 36906 ft | 494 kts | 120° |
| 2026-05-03 23:33 | 5.80628 | 138.66943 | 36902 ft | 494 kts | 120° |
| 2026-05-03 23:33 | 5.77086 | 138.72806 | 36903 ft | 494 kts | 120° |
| 2026-05-03 23:34 | 5.73521 | 138.78705 | 36896 ft | 494 kts | 120° |
| 2026-05-03 23:34 | 5.69959 | 138.84597 | 36890 ft | 494 kts | 120° |
| 2026-05-03 23:35 | 5.66385 | 138.90507 | 36908 ft | 494 kts | 120° |
| 2026-05-03 23:35 | 5.62812 | 138.96415 | 36894 ft | 494 kts | 120° |
| 2026-05-03 23:36 | 5.59241 | 139.02316 | 36893 ft | 494 kts | 120° |
| 2026-05-03 23:36 | 5.55696 | 139.08173 | 36910 ft | 494 kts | 120° |
| 2026-05-03 23:37 | 5.52127 | 139.14069 | 36912 ft | 493 kts | 120° |
| 2026-05-03 23:37 | 5.48560 | 139.19959 | 36894 ft | 493 kts | 120° |
| 2026-05-03 23:38 | 5.44994 | 139.25847 | 36895 ft | 494 kts | 120° |
| 2026-05-03 23:38 | 5.41417 | 139.31750 | 36910 ft | 495 kts | 120° |
| 2026-05-03 23:39 | 5.37835 | 139.37660 | 36916 ft | 495 kts | 120° |
| 2026-05-03 23:39 | 5.34257 | 139.43561 | 36899 ft | 495 kts | 120° |
| 2026-05-03 23:40 | 5.30701 | 139.49425 | 36895 ft | 495 kts | 120° |
| 2026-05-03 23:40 | 5.27126 | 139.55320 | 36917 ft | 494 kts | 120° |
| 2026-05-03 23:41 | 5.23558 | 139.61199 | 36906 ft | 493 kts | 120° |
| 2026-05-03 23:41 | 5.19991 | 139.67078 | 36900 ft | 494 kts | 120° |
| 2026-05-03 23:42 | 5.16407 | 139.72981 | 36897 ft | 495 kts | 120° |
| 2026-05-03 23:42 | 5.12829 | 139.78873 | 36915 ft | 494 kts | 120° |
| 2026-05-03 23:43 | 5.09253 | 139.84761 | 36903 ft | 494 kts | 120° |
| 2026-05-03 23:43 | 5.05705 | 139.90601 | 36921 ft | 494 kts | 120° |
| 2026-05-03 23:44 | 5.02130 | 139.96484 | 36901 ft | 494 kts | 120° |
| 2026-05-03 23:44 | 4.98242 | 140.02168 | 36902 ft | 494 kts | 126° |
| 2026-05-03 23:45 | 4.93991 | 140.07607 | 36901 ft | 495 kts | 127° |
| 2026-05-03 23:45 | 4.89688 | 140.13004 | 36921 ft | 495 kts | 127° |
| 2026-05-03 23:46 | 4.85388 | 140.18397 | 36921 ft | 495 kts | 127° |
| 2026-05-03 23:46 | 4.81092 | 140.23798 | 36904 ft | 495 kts | 127° |
| 2026-05-03 23:47 | 4.76836 | 140.29155 | 36907 ft | 494 kts | 127° |
| 2026-05-03 23:47 | 4.72543 | 140.34558 | 36922 ft | 494 kts | 127° |
| 2026-05-03 23:48 | 4.68245 | 140.39965 | 36903 ft | 495 kts | 127° |
| 2026-05-03 23:48 | 4.63948 | 140.45371 | 36903 ft | 496 kts | 127° |
| 2026-05-03 23:49 | 4.59673 | 140.50747 | 36923 ft | 497 kts | 127° |
| 2026-05-03 23:49 | 4.55362 | 140.56166 | 36903 ft | 497 kts | 127° |
| 2026-05-03 23:50 | 4.51778 | 140.60671 | 36922 ft | 497 kts | 127° |
| 2026-05-03 23:50 | 4.46745 | 140.66996 | 36921 ft | 497 kts | 127° |
| 2026-05-03 23:51 | 4.42429 | 140.72419 | 36923 ft | 497 kts | 127° |
| 2026-05-03 23:51 | 4.38109 | 140.77845 | 36908 ft | 498 kts | 127° |
| 2026-05-03 23:52 | 4.33815 | 140.83238 | 36905 ft | 498 kts | 127° |
| 2026-05-03 23:52 | 4.29490 | 140.88668 | 36925 ft | 498 kts | 127° |
| 2026-05-03 23:53 | 4.25180 | 140.94078 | 36927 ft | 494 kts | 127° |
| 2026-05-03 23:53 | 4.20892 | 140.99460 | 36908 ft | 494 kts | 127° |
| 2026-05-03 23:54 | 4.16604 | 141.04841 | 36905 ft | 494 kts | 127° |
| 2026-05-03 23:54 | 4.12313 | 141.10226 | 36924 ft | 495 kts | 127° |
| 2026-05-03 23:55 | 4.08009 | 141.15624 | 36926 ft | 495 kts | 127° |
| 2026-05-03 23:55 | 4.03716 | 141.21009 | 36908 ft | 494 kts | 127° |
| 2026-05-03 23:56 | 3.99425 | 141.26389 | 36909 ft | 494 kts | 127° |
| 2026-05-03 23:56 | 3.95161 | 141.31734 | 36910 ft | 494 kts | 127° |
| 2026-05-03 23:57 | 3.90863 | 141.37123 | 36928 ft | 493 kts | 127° |
| 2026-05-03 23:57 | 3.87311 | 141.41574 | 36910 ft | 493 kts | 127° |
| 2026-05-03 23:58 | 3.83019 | 141.46952 | 36928 ft | 494 kts | 127° |
| 2026-05-03 23:58 | 3.78723 | 141.52334 | 36910 ft | 495 kts | 127° |
| 2026-05-03 23:59 | 3.74422 | 141.57721 | 36911 ft | 495 kts | 127° |
| 2026-05-03 23:59 | 3.70126 | 141.63101 | 36913 ft | 495 kts | 127° |
| 2026-05-04 00:00 | 3.65824 | 141.68489 | 36928 ft | 495 kts | 127° |
| 2026-05-04 00:00 | 3.61530 | 141.73864 | 36928 ft | 494 kts | 127° |
| 2026-05-04 00:01 | 3.57226 | 141.79251 | 36910 ft | 496 kts | 128° |
| 2026-05-04 00:01 | 3.52938 | 141.84619 | 36908 ft | 497 kts | 128° |
| 2026-05-04 00:02 | 3.48610 | 141.90033 | 36927 ft | 497 kts | 128° |
| 2026-05-04 00:02 | 3.44291 | 141.95437 | 36927 ft | 497 kts | 128° |
| 2026-05-04 00:03 | 3.39975 | 142.00836 | 36909 ft | 497 kts | 128° |
| 2026-05-04 00:03 | 3.35648 | 142.06247 | 36908 ft | 497 kts | 127° |
| 2026-05-04 00:04 | 3.31327 | 142.11650 | 36910 ft | 496 kts | 127° |
| 2026-05-04 00:04 | 3.27049 | 142.17000 | 36928 ft | 496 kts | 127° |
| 2026-05-04 00:05 | 3.22743 | 142.22383 | 36914 ft | 496 kts | 127° |
| 2026-05-04 00:05 | 3.18431 | 142.27774 | 36908 ft | 496 kts | 127° |
| 2026-05-04 00:06 | 3.14116 | 142.33166 | 36930 ft | 495 kts | 127° |
| 2026-05-04 00:06 | 3.09825 | 142.38528 | 36931 ft | 494 kts | 127° |
| 2026-05-04 00:07 | 3.05552 | 142.43867 | 36913 ft | 494 kts | 127° |
| 2026-05-04 00:07 | 3.01253 | 142.49237 | 36912 ft | 495 kts | 127° |
| 2026-05-04 00:08 | 2.96934 | 142.54632 | 36926 ft | 496 kts | 127° |
| 2026-05-04 00:08 | 2.92617 | 142.60023 | 36927 ft | 496 kts | 127° |
| 2026-05-04 00:09 | 2.88324 | 142.65383 | 36910 ft | 496 kts | 127° |
| 2026-05-04 00:09 | 2.84007 | 142.70773 | 36911 ft | 496 kts | 127° |
| 2026-05-04 00:10 | 2.79699 | 142.76152 | 36913 ft | 496 kts | 127° |
| 2026-05-04 00:10 | 2.75383 | 142.81539 | 36929 ft | 494 kts | 127° |
| 2026-05-04 00:11 | 2.71077 | 142.86913 | 36924 ft | 496 kts | 128° |
| 2026-05-04 00:11 | 2.66753 | 142.92309 | 36907 ft | 497 kts | 128° |
| 2026-05-04 00:12 | 2.62450 | 142.97678 | 36907 ft | 498 kts | 127° |
| 2026-05-04 00:12 | 2.58116 | 143.03084 | 36908 ft | 497 kts | 127° |
| 2026-05-04 00:13 | 2.53793 | 143.08477 | 36925 ft | 495 kts | 127° |
| 2026-05-04 00:13 | 2.49482 | 143.13854 | 36926 ft | 495 kts | 127° |
| 2026-05-04 00:14 | 2.45172 | 143.19230 | 36908 ft | 495 kts | 127° |
| 2026-05-04 00:14 | 2.40880 | 143.24581 | 36906 ft | 497 kts | 127° |
| 2026-05-04 00:15 | 2.36554 | 143.29975 | 36927 ft | 496 kts | 127° |
| 2026-05-04 00:15 | 2.32240 | 143.35353 | 36929 ft | 495 kts | 127° |
| 2026-05-04 00:16 | 2.27920 | 143.40738 | 36924 ft | 495 kts | 127° |
| 2026-05-04 00:16 | 2.23608 | 143.46113 | 36906 ft | 495 kts | 127° |
| 2026-05-04 00:17 | 2.19289 | 143.51496 | 36907 ft | 495 kts | 127° |
| 2026-05-04 00:17 | 2.15004 | 143.56836 | 36909 ft | 495 kts | 127° |
| 2026-05-04 00:18 | 2.10693 | 143.62207 | 36925 ft | 495 kts | 127° |
| 2026-05-04 00:18 | 2.06376 | 143.67587 | 36927 ft | 495 kts | 127° |
| 2026-05-04 00:19 | 2.02061 | 143.72963 | 36912 ft | 495 kts | 127° |
| 2026-05-04 00:19 | 1.97752 | 143.78330 | 36911 ft | 494 kts | 126° |
| 2026-05-04 00:20 | 1.93472 | 143.83661 | 36912 ft | 494 kts | 126° |
| 2026-05-04 00:20 | 1.89174 | 143.89015 | 36930 ft | 494 kts | 126° |
| 2026-05-04 00:21 | 1.84866 | 143.94380 | 36933 ft | 494 kts | 127° |
| 2026-05-04 00:21 | 1.80559 | 143.99744 | 36913 ft | 494 kts | 127° |
| 2026-05-04 00:22 | 1.76256 | 144.05102 | 36930 ft | 494 kts | 127° |
| 2026-05-04 00:22 | 1.71984 | 144.10421 | 36911 ft | 494 kts | 127° |
| 2026-05-04 00:23 | 1.67677 | 144.15782 | 36914 ft | 494 kts | 127° |
| 2026-05-04 00:23 | 1.63378 | 144.21135 | 36932 ft | 494 kts | 127° |
| 2026-05-04 00:24 | 1.59077 | 144.26488 | 36909 ft | 494 kts | 127° |
| 2026-05-04 00:24 | 1.54778 | 144.31839 | 36911 ft | 493 kts | 127° |
| 2026-05-04 00:25 | 1.50475 | 144.37194 | 36912 ft | 494 kts | 127° |
| 2026-05-04 00:25 | 1.46166 | 144.42558 | 36916 ft | 494 kts | 127° |
| 2026-05-04 00:26 | 1.41882 | 144.47889 | 36915 ft | 494 kts | 127° |
| 2026-05-04 00:26 | 1.37573 | 144.53250 | 36916 ft | 494 kts | 127° |
| 2026-05-04 00:27 | 1.33276 | 144.58597 | 36932 ft | 493 kts | 127° |
| 2026-05-04 00:27 | 1.28975 | 144.63947 | 36912 ft | 493 kts | 127° |
| 2026-05-04 00:28 | 1.24681 | 144.69289 | 36911 ft | 493 kts | 127° |
| 2026-05-04 00:28 | 1.20374 | 144.74649 | 36911 ft | 495 kts | 127° |
| 2026-05-04 00:29 | 1.16052 | 144.80025 | 36912 ft | 495 kts | 127° |
| 2026-05-04 00:29 | 1.11745 | 144.85381 | 36916 ft | 494 kts | 127° |
| 2026-05-04 00:30 | 1.07469 | 144.90700 | 36929 ft | 494 kts | 127° |
| 2026-05-04 00:30 | 1.03159 | 144.96061 | 36928 ft | 494 kts | 127° |
| 2026-05-04 00:31 | 0.98843 | 145.01419 | 36911 ft | 495 kts | 128° |
| 2026-05-04 00:31 | 0.94336 | 145.06627 | 36911 ft | 495 kts | 130° |
| 2026-05-04 00:32 | 0.89742 | 145.11767 | 36922 ft | 496 kts | 130° |
| 2026-05-04 00:32 | 0.85162 | 145.16938 | 36916 ft | 497 kts | 129° |
| 2026-05-04 00:33 | 0.78353 | 145.24702 | 36912 ft | 497 kts | 129° |
| 2026-05-04 00:34 | 0.73797 | 145.29908 | 36914 ft | 496 kts | 129° |
| 2026-05-04 00:34 | 0.69250 | 145.35102 | 36920 ft | 496 kts | 129° |
| 2026-05-04 00:35 | 0.64704 | 145.40292 | 36930 ft | 496 kts | 129° |
| 2026-05-04 00:35 | 0.60164 | 145.45476 | 36911 ft | 497 kts | 130° |
| 2026-05-04 00:36 | 0.55607 | 145.50679 | 36916 ft | 497 kts | 130° |
| 2026-05-04 00:36 | 0.51080 | 145.55846 | 36916 ft | 497 kts | 130° |
| 2026-05-04 00:37 | 0.46527 | 145.61043 | 36914 ft | 496 kts | 130° |
| 2026-05-04 00:37 | 0.41977 | 145.66237 | 36915 ft | 496 kts | 130° |
| 2026-05-04 00:38 | 0.37430 | 145.71428 | 36927 ft | 496 kts | 130° |
| 2026-05-04 00:38 | 0.32883 | 145.76619 | 36918 ft | 496 kts | 130° |
| 2026-05-04 00:39 | 0.28340 | 145.81805 | 36917 ft | 496 kts | 129° |
| 2026-05-04 00:39 | 0.23816 | 145.86970 | 36915 ft | 496 kts | 129° |
| 2026-05-04 00:40 | 0.19274 | 145.92154 | 36918 ft | 496 kts | 129° |
| 2026-05-04 00:40 | 0.14730 | 145.97341 | 36918 ft | 496 kts | 129° |
| 2026-05-04 00:41 | 0.10210 | 146.02501 | 36914 ft | 496 kts | 129° |
| 2026-05-04 00:41 | 0.05670 | 146.07683 | 36915 ft | 496 kts | 129° |
| 2026-05-04 00:42 | 0.01051 | 146.12802 | 36918 ft | 497 kts | 135° |
| 2026-05-04 00:42 | -0.04482 | 146.16970 | 36915 ft | 499 kts | 145° |
| 2026-05-04 00:43 | -0.10361 | 146.20689 | 36915 ft | 500 kts | 147° |
| 2026-05-04 00:43 | -0.16302 | 146.24347 | 36919 ft | 500 kts | 147° |
| 2026-05-04 00:44 | -0.22186 | 146.27984 | 36915 ft | 500 kts | 147° |
| 2026-05-04 00:44 | -0.27142 | 146.31064 | 36917 ft | 500 kts | 147° |
| 2026-05-04 00:45 | -0.33023 | 146.34728 | 36911 ft | 500 kts | 147° |
| 2026-05-04 00:45 | -0.38935 | 146.38414 | 36912 ft | 500 kts | 147° |
| 2026-05-04 00:46 | -0.44839 | 146.42092 | 36918 ft | 500 kts | 147° |
| 2026-05-04 00:46 | -0.50745 | 146.45772 | 36918 ft | 500 kts | 147° |
| 2026-05-04 00:47 | -0.56651 | 146.49451 | 36918 ft | 500 kts | 147° |
| 2026-05-04 00:47 | -0.62552 | 146.53128 | 36918 ft | 500 kts | 147° |
| 2026-05-04 00:48 | -0.68458 | 146.56808 | 36914 ft | 500 kts | 147° |
| 2026-05-04 00:48 | -0.74321 | 146.60461 | 36919 ft | 500 kts | 147° |
| 2026-05-04 00:49 | -0.80224 | 146.64139 | 36917 ft | 500 kts | 147° |
| 2026-05-04 00:49 | -0.86121 | 146.67814 | 36916 ft | 500 kts | 147° |
| 2026-05-04 00:50 | -0.92026 | 146.71493 | 36914 ft | 500 kts | 147° |
| 2026-05-04 00:50 | -0.97927 | 146.75171 | 36912 ft | 500 kts | 147° |
| 2026-05-04 00:51 | -1.03840 | 146.78856 | 36915 ft | 500 kts | 147° |
| 2026-05-04 00:51 | -1.09714 | 146.82516 | 36914 ft | 500 kts | 147° |
| 2026-05-04 00:52 | -1.15624 | 146.86200 | 36915 ft | 500 kts | 147° |
| 2026-05-04 00:52 | -1.21525 | 146.89878 | 36917 ft | 499 kts | 147° |
| 2026-05-04 00:53 | -1.27420 | 146.93552 | 36915 ft | 499 kts | 147° |
| 2026-05-04 00:53 | -1.33322 | 146.97231 | 36916 ft | 500 kts | 147° |
| 2026-05-04 00:54 | -1.39231 | 147.00915 | 36914 ft | 501 kts | 147° |
| 2026-05-04 00:54 | -1.45109 | 147.04580 | 36910 ft | 501 kts | 147° |
| 2026-05-04 00:55 | -1.51030 | 147.08271 | 36915 ft | 501 kts | 147° |
| 2026-05-04 00:55 | -1.56949 | 147.11961 | 36915 ft | 501 kts | 147° |
| 2026-05-04 00:56 | -1.62848 | 147.15639 | 36907 ft | 500 kts | 147° |
| 2026-05-04 00:56 | -1.68765 | 147.19330 | 36913 ft | 501 kts | 147° |
| 2026-05-04 00:57 | -1.74686 | 147.23022 | 36914 ft | 501 kts | 147° |
| 2026-05-04 00:57 | -1.80569 | 147.26691 | 36915 ft | 501 kts | 147° |
| 2026-05-04 00:58 | -1.86485 | 147.30381 | 36912 ft | 501 kts | 147° |
| 2026-05-04 00:58 | -1.92401 | 147.34071 | 36916 ft | 501 kts | 147° |
| 2026-05-04 00:59 | -1.98321 | 147.37765 | 36914 ft | 502 kts | 147° |
| 2026-05-04 00:59 | -2.04206 | 147.41532 | 36911 ft | 500 kts | 142° |
| 2026-05-04 01:00 | -2.09193 | 147.46326 | 36920 ft | 497 kts | 130° |
| 2026-05-04 01:00 | -2.13628 | 147.51580 | 36911 ft | 497 kts | 128° |
| 2026-05-04 01:01 | -2.17980 | 147.56904 | 36913 ft | 497 kts | 128° |
| 2026-05-04 01:01 | -2.22366 | 147.62258 | 36912 ft | 497 kts | 129° |
| 2026-05-04 01:02 | -2.26766 | 147.67598 | 36909 ft | 497 kts | 129° |
| 2026-05-04 01:02 | -2.31169 | 147.72929 | 36912 ft | 497 kts | 129° |
| 2026-05-04 01:03 | -2.35547 | 147.78228 | 36910 ft | 497 kts | 129° |
| 2026-05-04 01:03 | -2.39949 | 147.83560 | 36907 ft | 497 kts | 129° |
| 2026-05-04 01:04 | -2.44349 | 147.88889 | 36910 ft | 497 kts | 129° |
| 2026-05-04 01:04 | -2.48724 | 147.94189 | 36911 ft | 497 kts | 129° |
| 2026-05-04 01:05 | -2.53124 | 147.99521 | 36912 ft | 497 kts | 129° |
| 2026-05-04 01:05 | -2.57529 | 148.04859 | 36910 ft | 497 kts | 129° |
| 2026-05-04 01:06 | -2.61937 | 148.10202 | 36908 ft | 498 kts | 129° |
| 2026-05-04 01:06 | -2.66346 | 148.15546 | 36907 ft | 498 kts | 129° |
| 2026-05-04 01:07 | -2.70761 | 148.20897 | 36911 ft | 498 kts | 129° |
| 2026-05-04 01:07 | -2.75171 | 148.26245 | 36910 ft | 498 kts | 129° |
| 2026-05-04 01:08 | -2.79555 | 148.31560 | 36909 ft | 498 kts | 129° |
| 2026-05-04 01:08 | -2.83959 | 148.36902 | 36913 ft | 498 kts | 129° |
| 2026-05-04 01:09 | -2.88374 | 148.42256 | 36907 ft | 498 kts | 129° |
| 2026-05-04 01:09 | -2.92790 | 148.47614 | 36907 ft | 499 kts | 129° |
| 2026-05-04 01:10 | -2.97212 | 148.52978 | 36907 ft | 499 kts | 129° |
| 2026-05-04 01:10 | -3.01633 | 148.58342 | 36907 ft | 500 kts | 129° |
| 2026-05-04 01:11 | -3.06031 | 148.63680 | 36908 ft | 500 kts | 129° |
| 2026-05-04 01:11 | -3.10457 | 148.69051 | 36907 ft | 500 kts | 129° |
| 2026-05-04 01:12 | -3.14886 | 148.74428 | 36909 ft | 500 kts | 129° |
| 2026-05-04 01:12 | -3.19280 | 148.79762 | 36907 ft | 500 kts | 129° |
| 2026-05-04 01:13 | -3.23701 | 148.85131 | 36906 ft | 500 kts | 129° |
| 2026-05-04 01:13 | -3.28130 | 148.90509 | 36906 ft | 500 kts | 129° |
| 2026-05-04 01:14 | -3.32553 | 148.95882 | 36909 ft | 500 kts | 129° |
| 2026-05-04 01:14 | -3.36977 | 149.01256 | 36913 ft | 500 kts | 129° |
| 2026-05-04 01:15 | -3.41403 | 149.06634 | 36906 ft | 500 kts | 129° |
| 2026-05-04 01:15 | -3.45827 | 149.12010 | 36909 ft | 500 kts | 129° |
| 2026-05-04 01:16 | -3.50221 | 149.17350 | 36910 ft | 500 kts | 129° |
| 2026-05-04 01:16 | -3.54654 | 149.22739 | 36907 ft | 500 kts | 129° |
| 2026-05-04 01:17 | -3.59073 | 149.28111 | 36917 ft | 500 kts | 129° |
| 2026-05-04 01:17 | -3.63496 | 149.33491 | 36907 ft | 500 kts | 129° |
| 2026-05-04 01:18 | -3.67892 | 149.38837 | 36905 ft | 501 kts | 129° |
| 2026-05-04 01:18 | -3.72320 | 149.44223 | 36905 ft | 501 kts | 129° |
| 2026-05-04 01:19 | -3.76754 | 149.49618 | 36904 ft | 501 kts | 129° |
| 2026-05-04 01:19 | -3.81190 | 149.55015 | 36902 ft | 501 kts | 129° |
| 2026-05-04 01:20 | -3.85625 | 149.60413 | 36906 ft | 501 kts | 129° |
| 2026-05-04 01:20 | -3.90024 | 149.65768 | 36908 ft | 501 kts | 129° |
| 2026-05-04 01:21 | -3.94448 | 149.71155 | 36906 ft | 500 kts | 129° |
| 2026-05-04 01:21 | -3.98872 | 149.76541 | 36904 ft | 501 kts | 129° |
| 2026-05-04 01:22 | -4.03295 | 149.81929 | 36902 ft | 501 kts | 129° |
| 2026-05-04 01:22 | -4.07721 | 149.87321 | 36902 ft | 501 kts | 129° |
| 2026-05-04 01:23 | -4.12149 | 149.92715 | 36905 ft | 500 kts | 128° |
| 2026-05-04 01:23 | -4.16529 | 149.98053 | 36902 ft | 500 kts | 128° |
| 2026-05-04 01:24 | -4.20946 | 150.03438 | 36902 ft | 499 kts | 128° |
| 2026-05-04 01:24 | -4.25362 | 150.08821 | 36902 ft | 499 kts | 128° |
| 2026-05-04 01:25 | -4.29781 | 150.14210 | 36899 ft | 499 kts | 128° |
| 2026-05-04 01:25 | -4.34163 | 150.19555 | 36898 ft | 499 kts | 128° |
| 2026-05-04 01:26 | -4.38568 | 150.24928 | 36903 ft | 498 kts | 128° |
| 2026-05-04 01:26 | -4.42969 | 150.30298 | 36902 ft | 498 kts | 128° |
| 2026-05-04 01:27 | -4.47369 | 150.35667 | 36901 ft | 498 kts | 128° |
| 2026-05-04 01:27 | -4.51770 | 150.41040 | 36899 ft | 498 kts | 128° |
| 2026-05-04 01:28 | -4.56164 | 150.46404 | 36901 ft | 498 kts | 128° |
| 2026-05-04 01:28 | -4.60574 | 150.51789 | 36904 ft | 499 kts | 128° |
| 2026-05-04 01:29 | -4.64952 | 150.57138 | 36901 ft | 500 kts | 128° |
| 2026-05-04 01:29 | -4.69365 | 150.62528 | 36899 ft | 501 kts | 128° |
| 2026-05-04 01:30 | -4.73790 | 150.67935 | 36897 ft | 501 kts | 128° |
| 2026-05-04 01:30 | -4.78211 | 150.73338 | 36901 ft | 501 kts | 128° |
| 2026-05-04 01:31 | -4.82627 | 150.78738 | 36897 ft | 501 kts | 128° |
| 2026-05-04 01:31 | -4.87018 | 150.84107 | 36896 ft | 501 kts | 128° |
| 2026-05-04 01:32 | -4.91436 | 150.89510 | 36894 ft | 501 kts | 128° |
| 2026-05-04 01:32 | -4.95852 | 150.94913 | 36896 ft | 501 kts | 128° |
| 2026-05-04 01:33 | -5.00268 | 151.00317 | 37008 ft | 500 kts | 128° |
| 2026-05-04 01:33 | -5.02498 | 151.03015 | 37198 ft | 500 kts | 129° |
| 2026-05-04 01:33 | -5.03985 | 151.04778 | 37331 ft | 500 kts | 129° |
| 2026-05-04 01:33 | -5.06239 | 151.07427 | 37586 ft | 498 kts | 129° |
| 2026-05-04 01:34 | -5.08494 | 151.10067 | 37780 ft | 498 kts | 129° |
| 2026-05-04 01:34 | -5.10736 | 151.12697 | 37952 ft | 497 kts | 129° |
| 2026-05-04 01:34 | -5.12981 | 151.15336 | 38155 ft | 496 kts | 129° |
| 2026-05-04 01:34 | -5.15222 | 151.17978 | 38306 ft | 496 kts | 129° |
| 2026-05-04 01:35 | -5.17450 | 151.20609 | 38478 ft | 495 kts | 129° |
| 2026-05-04 01:35 | -5.19686 | 151.23252 | 38632 ft | 495 kts | 129° |
| 2026-05-04 01:35 | -5.21913 | 151.25887 | 38762 ft | 495 kts | 129° |
| 2026-05-04 01:35 | -5.24139 | 151.28521 | 38894 ft | 495 kts | 129° |
| 2026-05-04 01:36 | -5.26372 | 151.31164 | 38940 ft | 497 kts | 129° |
| 2026-05-04 01:36 | -5.30818 | 151.36425 | 38939 ft | 496 kts | 129° |
| 2026-05-04 01:37 | -5.35306 | 151.41735 | 38946 ft | 495 kts | 129° |
| 2026-05-04 01:37 | -5.39719 | 151.46959 | 38940 ft | 494 kts | 129° |
| 2026-05-04 01:38 | -5.44166 | 151.52224 | 38938 ft | 494 kts | 129° |
| 2026-05-04 01:38 | -5.48606 | 151.57482 | 38930 ft | 494 kts | 129° |
| 2026-05-04 01:39 | -5.53054 | 151.62750 | 38908 ft | 494 kts | 129° |
| 2026-05-04 01:39 | -5.57495 | 151.68014 | 38908 ft | 495 kts | 129° |
| 2026-05-04 01:40 | -5.61947 | 151.73292 | 38913 ft | 495 kts | 129° |
| 2026-05-04 01:40 | -5.66365 | 151.78530 | 38885 ft | 495 kts | 129° |
| 2026-05-04 01:41 | -5.70814 | 151.83806 | 38902 ft | 495 kts | 129° |
| 2026-05-04 01:41 | -5.75265 | 151.89085 | 38885 ft | 495 kts | 129° |
| 2026-05-04 01:42 | -5.79710 | 151.94358 | 38879 ft | 495 kts | 129° |
| 2026-05-04 01:42 | -5.84162 | 151.99643 | 38893 ft | 495 kts | 129° |
| 2026-05-04 01:43 | -5.88617 | 152.04930 | 38897 ft | 495 kts | 129° |
| 2026-05-04 01:43 | -5.93040 | 152.10182 | 38883 ft | 495 kts | 129° |
| 2026-05-04 01:44 | -5.97491 | 152.15469 | 38881 ft | 495 kts | 129° |
| 2026-05-04 01:44 | -6.01939 | 152.20754 | 38898 ft | 495 kts | 129° |
| 2026-05-04 01:45 | -6.06390 | 152.26043 | 38899 ft | 495 kts | 129° |
| 2026-05-04 01:45 | -6.13068 | 152.33982 | 38882 ft | 496 kts | 130° |
| 2026-05-04 01:46 | -6.17517 | 152.39274 | 38899 ft | 496 kts | 130° |
| 2026-05-04 01:46 | -6.21941 | 152.44536 | 38898 ft | 495 kts | 130° |
| 2026-05-04 01:47 | -6.26393 | 152.49833 | 38880 ft | 495 kts | 129° |
| 2026-05-04 01:47 | -6.30842 | 152.55130 | 38896 ft | 495 kts | 130° |
| 2026-05-04 01:48 | -6.35294 | 152.60430 | 38896 ft | 496 kts | 130° |
| 2026-05-04 01:48 | -6.39699 | 152.65676 | 38879 ft | 496 kts | 130° |
| 2026-05-04 01:49 | -6.44154 | 152.70984 | 38879 ft | 496 kts | 130° |
| 2026-05-04 01:49 | -6.48585 | 152.76264 | 38896 ft | 497 kts | 130° |
| 2026-05-04 01:50 | -6.53041 | 152.81575 | 38894 ft | 497 kts | 130° |
| 2026-05-04 01:50 | -6.57499 | 152.86892 | 38876 ft | 496 kts | 130° |
| 2026-05-04 01:51 | -6.61947 | 152.92196 | 38873 ft | 496 kts | 130° |
| 2026-05-04 01:51 | -6.66394 | 152.97503 | 38890 ft | 496 kts | 130° |
| 2026-05-04 01:52 | -6.70837 | 153.02805 | 38889 ft | 496 kts | 130° |
| 2026-05-04 01:52 | -6.75280 | 153.08110 | 38873 ft | 496 kts | 130° |
| 2026-05-04 01:53 | -6.79698 | 153.13386 | 38871 ft | 496 kts | 130° |
| 2026-05-04 01:53 | -6.84147 | 153.18700 | 38887 ft | 495 kts | 130° |
| 2026-05-04 01:54 | -6.88583 | 153.24001 | 38877 ft | 495 kts | 130° |
| 2026-05-04 01:54 | -6.93028 | 153.29314 | 38873 ft | 495 kts | 130° |
| 2026-05-04 01:55 | -6.97434 | 153.34583 | 38887 ft | 495 kts | 130° |
| 2026-05-04 01:55 | -7.01865 | 153.39882 | 38885 ft | 495 kts | 130° |
| 2026-05-04 01:56 | -7.06292 | 153.45180 | 38874 ft | 495 kts | 130° |
| 2026-05-04 01:56 | -7.10728 | 153.50489 | 38889 ft | 494 kts | 130° |
| 2026-05-04 01:57 | -7.15149 | 153.55783 | 38873 ft | 494 kts | 130° |
| 2026-05-04 01:57 | -7.19586 | 153.61097 | 38874 ft | 497 kts | 130° |
| 2026-05-04 01:58 | -7.24042 | 153.66435 | 38868 ft | 497 kts | 130° |
| 2026-05-04 01:58 | -7.28492 | 153.71769 | 38870 ft | 498 kts | 130° |
| 2026-05-04 01:59 | -7.32952 | 153.77116 | 38869 ft | 498 kts | 130° |
| 2026-05-04 01:59 | -7.37411 | 153.82464 | 38869 ft | 498 kts | 130° |
| 2026-05-04 02:00 | -7.41833 | 153.87769 | 38872 ft | 497 kts | 130° |
| 2026-05-04 02:00 | -7.46288 | 153.93115 | 38870 ft | 498 kts | 130° |
| 2026-05-04 02:01 | -7.50750 | 153.98472 | 38869 ft | 498 kts | 130° |
| 2026-05-04 02:01 | -7.55205 | 154.03824 | 38869 ft | 499 kts | 130° |
| 2026-05-04 02:02 | -7.59666 | 154.09183 | 38869 ft | 499 kts | 130° |
| 2026-05-04 02:02 | -7.64129 | 154.14547 | 38867 ft | 500 kts | 130° |
| 2026-05-04 02:03 | -7.68573 | 154.19889 | 38871 ft | 500 kts | 130° |
| 2026-05-04 02:03 | -7.73037 | 154.25258 | 38870 ft | 499 kts | 130° |
| 2026-05-04 02:04 | -7.77505 | 154.30633 | 38869 ft | 500 kts | 130° |
| 2026-05-04 02:04 | -7.81978 | 154.36017 | 38869 ft | 500 kts | 130° |
| 2026-05-04 02:05 | -7.86451 | 154.41402 | 38869 ft | 500 kts | 130° |
| 2026-05-04 02:05 | -7.90914 | 154.46779 | 38870 ft | 499 kts | 131° |
| 2026-05-04 02:06 | -7.95377 | 154.52156 | 38870 ft | 499 kts | 131° |
| 2026-05-04 02:06 | -7.99811 | 154.57500 | 38869 ft | 499 kts | 131° |
| 2026-05-04 02:07 | -8.04267 | 154.62874 | 38870 ft | 499 kts | 131° |
| 2026-05-04 02:07 | -8.08702 | 154.68223 | 38870 ft | 499 kts | 131° |
| 2026-05-04 02:08 | -8.13153 | 154.73595 | 38868 ft | 499 kts | 131° |
| 2026-05-04 02:08 | -8.17608 | 154.78972 | 38867 ft | 499 kts | 131° |
| 2026-05-04 02:09 | -8.22061 | 154.84350 | 38867 ft | 499 kts | 131° |
| 2026-05-04 02:09 | -8.26517 | 154.89733 | 38869 ft | 499 kts | 131° |
| 2026-05-04 02:10 | -8.30935 | 154.95073 | 38867 ft | 499 kts | 131° |
| 2026-05-04 02:10 | -8.35383 | 155.00452 | 38864 ft | 499 kts | 131° |
| 2026-05-04 02:11 | -8.39836 | 155.05821 | 38867 ft | 498 kts | 131° |
| 2026-05-04 02:11 | -8.44296 | 155.11180 | 38868 ft | 498 kts | 131° |
| 2026-05-04 02:12 | -8.48758 | 155.16546 | 38869 ft | 498 kts | 131° |
| 2026-05-04 02:12 | -8.53207 | 155.21904 | 38864 ft | 498 kts | 131° |
| 2026-05-04 02:13 | -8.57658 | 155.27267 | 38866 ft | 498 kts | 131° |
| 2026-05-04 02:13 | -8.62117 | 155.32642 | 38865 ft | 498 kts | 131° |
| 2026-05-04 02:14 | -8.66570 | 155.38012 | 38861 ft | 499 kts | 131° |
| 2026-05-04 02:14 | -8.71005 | 155.43362 | 38864 ft | 499 kts | 131° |
| 2026-05-04 02:15 | -8.75458 | 155.48737 | 38864 ft | 499 kts | 131° |
| 2026-05-04 02:15 | -8.79914 | 155.54117 | 38864 ft | 499 kts | 131° |
| 2026-05-04 02:16 | -8.84367 | 155.59496 | 38865 ft | 499 kts | 131° |
| 2026-05-04 02:16 | -8.88823 | 155.64881 | 38865 ft | 498 kts | 131° |
| 2026-05-04 02:17 | -8.93270 | 155.70256 | 38864 ft | 498 kts | 131° |
| 2026-05-04 02:17 | -8.97723 | 155.75642 | 38862 ft | 498 kts | 131° |
| 2026-05-04 02:18 | -9.02169 | 155.81021 | 38864 ft | 499 kts | 131° |
| 2026-05-04 02:18 | -9.06586 | 155.86368 | 38864 ft | 498 kts | 131° |
| 2026-05-04 02:19 | -9.11041 | 155.91762 | 38861 ft | 498 kts | 131° |
| 2026-05-04 02:19 | -9.15486 | 155.97148 | 38865 ft | 498 kts | 131° |
| 2026-05-04 02:20 | -9.19902 | 156.02500 | 38865 ft | 498 kts | 131° |
| 2026-05-04 02:20 | -9.24348 | 156.07890 | 38863 ft | 498 kts | 131° |
| 2026-05-04 02:21 | -9.28759 | 156.13241 | 38865 ft | 498 kts | 131° |
| 2026-05-04 02:21 | -9.33199 | 156.18629 | 38864 ft | 498 kts | 131° |
| 2026-05-04 02:22 | -9.36893 | 156.23114 | 38865 ft | 498 kts | 131° |
| 2026-05-04 02:22 | -9.41324 | 156.28496 | 38864 ft | 498 kts | 131° |
| 2026-05-04 02:23 | -9.45765 | 156.33892 | 38863 ft | 498 kts | 131° |
| 2026-05-04 02:23 | -9.50197 | 156.39279 | 38864 ft | 498 kts | 131° |
| 2026-05-04 02:24 | -9.54634 | 156.44675 | 38863 ft | 498 kts | 131° |
| 2026-05-04 02:24 | -9.59038 | 156.50033 | 38864 ft | 498 kts | 131° |
| 2026-05-04 02:25 | -9.63475 | 156.55434 | 38864 ft | 498 kts | 131° |
| 2026-05-04 02:25 | -9.67892 | 156.60813 | 38864 ft | 498 kts | 131° |
| 2026-05-04 02:26 | -9.72321 | 156.66208 | 38863 ft | 498 kts | 131° |
| 2026-05-04 02:26 | -9.76749 | 156.71606 | 38865 ft | 497 kts | 131° |
| 2026-05-04 02:27 | -9.81149 | 156.76972 | 38865 ft | 497 kts | 131° |
| 2026-05-04 02:27 | -9.85570 | 156.82365 | 38865 ft | 497 kts | 131° |
| 2026-05-04 02:28 | -9.89992 | 156.87763 | 38864 ft | 497 kts | 131° |
| 2026-05-04 02:28 | -9.94411 | 156.93159 | 38865 ft | 497 kts | 131° |
| 2026-05-04 02:29 | -9.98933 | 156.98448 | 38864 ft | 496 kts | 137° |
| 2026-05-04 02:29 | -10.04442 | 157.02598 | 38865 ft | 492 kts | 150° |
| 2026-05-04 02:30 | -10.10344 | 157.06140 | 38863 ft | 493 kts | 152° |
| 2026-05-04 02:30 | -10.16298 | 157.09588 | 38865 ft | 493 kts | 152° |
| 2026-05-04 02:31 | -10.22243 | 157.13044 | 38863 ft | 493 kts | 152° |
| 2026-05-04 02:31 | -10.28182 | 157.16523 | 38861 ft | 492 kts | 151° |
| 2026-05-04 02:32 | -10.34112 | 157.20007 | 38861 ft | 493 kts | 151° |
| 2026-05-04 02:32 | -10.40011 | 157.23476 | 38866 ft | 493 kts | 151° |
| 2026-05-04 02:33 | -10.45945 | 157.26966 | 38860 ft | 493 kts | 152° |
| 2026-05-04 02:33 | -10.51882 | 157.30459 | 38862 ft | 492 kts | 152° |
| 2026-05-04 02:34 | -10.57815 | 157.33949 | 38862 ft | 492 kts | 152° |
| 2026-05-04 02:34 | -10.63741 | 157.37439 | 38862 ft | 492 kts | 152° |
| 2026-05-04 02:35 | -10.69672 | 157.40932 | 38861 ft | 492 kts | 152° |
| 2026-05-04 02:35 | -10.75599 | 157.44425 | 38862 ft | 492 kts | 151° |
| 2026-05-04 02:36 | -10.81532 | 157.47923 | 38862 ft | 492 kts | 152° |
| 2026-05-04 02:36 | -10.87428 | 157.51401 | 38861 ft | 493 kts | 152° |
| 2026-05-04 02:37 | -10.93365 | 157.54905 | 38865 ft | 493 kts | 152° |
| 2026-05-04 02:37 | -10.99304 | 157.58411 | 38865 ft | 493 kts | 152° |
| 2026-05-04 02:38 | -11.05250 | 157.61923 | 38864 ft | 493 kts | 152° |
| 2026-05-04 02:38 | -11.11179 | 157.65427 | 38864 ft | 493 kts | 152° |
| 2026-05-04 02:39 | -11.17115 | 157.68937 | 38868 ft | 493 kts | 152° |
| 2026-05-04 02:39 | -11.23057 | 157.72452 | 38865 ft | 494 kts | 152° |
| 2026-05-04 02:40 | -11.28966 | 157.75948 | 38867 ft | 494 kts | 152° |
| 2026-05-04 02:40 | -11.34913 | 157.79470 | 38864 ft | 494 kts | 152° |
| 2026-05-04 02:41 | -11.40860 | 157.82993 | 38868 ft | 494 kts | 152° |
| 2026-05-04 02:41 | -11.46800 | 157.86513 | 38867 ft | 494 kts | 152° |
| 2026-05-04 02:42 | -11.52744 | 157.90039 | 38871 ft | 494 kts | 152° |
| 2026-05-04 02:42 | -11.58702 | 157.93573 | 38867 ft | 495 kts | 152° |
| 2026-05-04 02:43 | -11.64652 | 157.97105 | 38867 ft | 495 kts | 152° |
| 2026-05-04 02:43 | -11.70617 | 158.00647 | 38864 ft | 495 kts | 152° |
| 2026-05-04 02:44 | -11.76576 | 158.04187 | 38868 ft | 495 kts | 152° |
| 2026-05-04 02:44 | -11.82530 | 158.07727 | 38866 ft | 495 kts | 152° |
| 2026-05-04 02:45 | -11.88451 | 158.11248 | 38872 ft | 495 kts | 152° |
| 2026-05-04 02:45 | -11.94396 | 158.14786 | 38875 ft | 496 kts | 152° |
| 2026-05-04 02:46 | -12.00359 | 158.18336 | 38871 ft | 496 kts | 152° |
| 2026-05-04 02:46 | -12.06316 | 158.21885 | 38871 ft | 496 kts | 152° |
| 2026-05-04 02:47 | -12.12275 | 158.25436 | 38870 ft | 495 kts | 152° |
| 2026-05-04 02:47 | -12.18232 | 158.28989 | 38870 ft | 495 kts | 152° |
| 2026-05-04 02:48 | -12.24183 | 158.32539 | 38870 ft | 495 kts | 153° |
| 2026-05-04 02:48 | -12.30113 | 158.36079 | 38868 ft | 495 kts | 153° |
| 2026-05-04 02:49 | -12.36072 | 158.39637 | 38871 ft | 495 kts | 153° |
| 2026-05-04 02:49 | -12.42030 | 158.43197 | 38872 ft | 496 kts | 153° |
| 2026-05-04 02:50 | -12.47948 | 158.46736 | 38871 ft | 496 kts | 153° |
| 2026-05-04 02:50 | -12.53902 | 158.50298 | 38867 ft | 496 kts | 153° |
| 2026-05-04 02:51 | -12.59850 | 158.53858 | 38876 ft | 495 kts | 153° |
| 2026-05-04 02:51 | -12.65809 | 158.57426 | 38872 ft | 495 kts | 153° |
| 2026-05-04 02:52 | -12.71760 | 158.60992 | 38872 ft | 495 kts | 153° |
| 2026-05-04 02:52 | -12.77705 | 158.64556 | 38875 ft | 495 kts | 153° |
| 2026-05-04 02:53 | -12.83661 | 158.68128 | 38875 ft | 495 kts | 153° |
| 2026-05-04 02:53 | -12.89605 | 158.71696 | 38877 ft | 495 kts | 153° |
| 2026-05-04 02:54 | -12.95558 | 158.75271 | 38871 ft | 495 kts | 153° |
| 2026-05-04 02:54 | -13.01477 | 158.78827 | 38868 ft | 495 kts | 153° |
| 2026-05-04 02:55 | -13.10393 | 158.84188 | 38877 ft | 495 kts | 153° |
| 2026-05-04 02:56 | -13.16345 | 158.87769 | 38871 ft | 496 kts | 154° |
| 2026-05-04 02:56 | -13.22301 | 158.91355 | 38875 ft | 496 kts | 154° |
| 2026-05-04 02:57 | -13.28254 | 158.94941 | 38874 ft | 496 kts | 154° |
| 2026-05-04 02:57 | -13.34203 | 158.98526 | 38877 ft | 496 kts | 154° |
| 2026-05-04 02:58 | -13.40157 | 159.02117 | 38873 ft | 496 kts | 154° |
| 2026-05-04 02:58 | -13.46073 | 159.05687 | 38871 ft | 496 kts | 154° |
| 2026-05-04 02:59 | -13.52024 | 159.09280 | 38870 ft | 496 kts | 154° |
| 2026-05-04 02:59 | -13.57973 | 159.12874 | 38868 ft | 496 kts | 154° |
| 2026-05-04 03:00 | -13.63924 | 159.16471 | 38873 ft | 496 kts | 154° |
| 2026-05-04 03:00 | -13.69882 | 159.20074 | 38876 ft | 496 kts | 153° |
| 2026-05-04 03:01 | -13.75826 | 159.23671 | 38879 ft | 495 kts | 153° |
| 2026-05-04 03:01 | -13.81769 | 159.27271 | 38870 ft | 496 kts | 153° |
| 2026-05-04 03:02 | -13.87712 | 159.30872 | 38873 ft | 496 kts | 153° |
| 2026-05-04 03:02 | -13.93621 | 159.34455 | 38874 ft | 496 kts | 153° |
| 2026-05-04 03:03 | -13.99561 | 159.38059 | 38873 ft | 496 kts | 153° |
| 2026-05-04 03:03 | -14.05493 | 159.41682 | 38876 ft | 496 kts | 153° |
| 2026-05-04 03:04 | -14.11415 | 159.45324 | 38882 ft | 495 kts | 153° |
| 2026-05-04 03:04 | -14.17332 | 159.48964 | 38876 ft | 495 kts | 153° |
| 2026-05-04 03:05 | -14.23256 | 159.52607 | 38877 ft | 495 kts | 153° |
| 2026-05-04 03:05 | -14.29179 | 159.56251 | 38878 ft | 495 kts | 153° |
| 2026-05-04 03:06 | -14.35095 | 159.59892 | 38878 ft | 495 kts | 153° |
| 2026-05-04 03:06 | -14.41012 | 159.63536 | 38879 ft | 494 kts | 153° |
| 2026-05-04 03:07 | -14.46912 | 159.67172 | 38876 ft | 494 kts | 153° |
| 2026-05-04 03:07 | -14.52775 | 159.70787 | 38876 ft | 494 kts | 153° |
| 2026-05-04 03:08 | -14.58676 | 159.74427 | 38879 ft | 494 kts | 153° |
| 2026-05-04 03:08 | -14.63584 | 159.77458 | 38879 ft | 494 kts | 153° |
| 2026-05-04 03:09 | -14.69486 | 159.81104 | 38880 ft | 494 kts | 153° |
| 2026-05-04 03:09 | -14.75385 | 159.84750 | 38879 ft | 494 kts | 153° |
| 2026-05-04 03:10 | -14.81273 | 159.88392 | 38878 ft | 493 kts | 153° |
| 2026-05-04 03:10 | -14.87169 | 159.92042 | 38884 ft | 493 kts | 153° |
| 2026-05-04 03:11 | -14.93047 | 159.95682 | 38881 ft | 493 kts | 153° |
| 2026-05-04 03:11 | -14.98938 | 159.99333 | 38878 ft | 493 kts | 153° |
| 2026-05-04 03:12 | -15.04876 | 160.02894 | 38881 ft | 492 kts | 155° |
| 2026-05-04 03:12 | -15.10862 | 160.06234 | 38882 ft | 492 kts | 156° |
| 2026-05-04 03:13 | -15.16889 | 160.09595 | 38883 ft | 493 kts | 155° |
| 2026-05-04 03:13 | -15.22913 | 160.12998 | 38881 ft | 493 kts | 155° |
| 2026-05-04 03:14 | -15.28941 | 160.16427 | 38881 ft | 493 kts | 155° |
| 2026-05-04 03:14 | -15.34946 | 160.19848 | 38884 ft | 493 kts | 155° |
| 2026-05-04 03:15 | -15.40956 | 160.23272 | 38879 ft | 493 kts | 155° |
| 2026-05-04 03:15 | -15.46968 | 160.26699 | 38885 ft | 493 kts | 155° |
| 2026-05-04 03:16 | -15.52982 | 160.30128 | 38883 ft | 493 kts | 155° |
| 2026-05-04 03:16 | -15.58992 | 160.33558 | 38886 ft | 493 kts | 155° |
| 2026-05-04 03:17 | -15.64968 | 160.36970 | 38887 ft | 493 kts | 155° |
| 2026-05-04 03:17 | -15.70983 | 160.40407 | 38887 ft | 493 kts | 155° |
| 2026-05-04 03:18 | -15.77005 | 160.43851 | 38884 ft | 493 kts | 155° |
| 2026-05-04 03:18 | -15.83014 | 160.47290 | 38887 ft | 493 kts | 155° |
| 2026-05-04 03:19 | -15.89037 | 160.50738 | 38889 ft | 493 kts | 155° |
| 2026-05-04 03:19 | -15.95013 | 160.54163 | 38897 ft | 493 kts | 155° |
| 2026-05-04 03:20 | -16.01018 | 160.57606 | 38885 ft | 493 kts | 155° |
| 2026-05-04 03:20 | -16.07017 | 160.61049 | 38890 ft | 493 kts | 155° |
| 2026-05-04 03:21 | -16.13028 | 160.64500 | 38892 ft | 493 kts | 155° |
| 2026-05-04 03:21 | -16.19021 | 160.67943 | 38889 ft | 492 kts | 156° |
| 2026-05-04 03:22 | -16.25019 | 160.71392 | 38891 ft | 492 kts | 156° |
| 2026-05-04 03:22 | -16.31009 | 160.74839 | 38894 ft | 492 kts | 156° |
| 2026-05-04 03:23 | -16.36984 | 160.78279 | 38892 ft | 492 kts | 156° |
| 2026-05-04 03:23 | -16.42931 | 160.81706 | 38892 ft | 492 kts | 156° |
| 2026-05-04 03:24 | -16.48920 | 160.85159 | 38904 ft | 491 kts | 156° |
| 2026-05-04 03:24 | -16.54893 | 160.88607 | 38900 ft | 490 kts | 156° |
| 2026-05-04 03:25 | -16.60846 | 160.92045 | 38895 ft | 488 kts | 156° |
| 2026-05-04 03:25 | -16.66793 | 160.95481 | 38897 ft | 488 kts | 156° |
| 2026-05-04 03:26 | -16.72698 | 160.98895 | 38897 ft | 488 kts | 156° |
| 2026-05-04 03:26 | -16.78640 | 161.02333 | 38895 ft | 488 kts | 156° |
| 2026-05-04 03:27 | -16.84582 | 161.05774 | 38906 ft | 488 kts | 156° |
| 2026-05-04 03:27 | -16.90506 | 161.09208 | 38897 ft | 487 kts | 156° |
| 2026-05-04 03:28 | -16.96436 | 161.12648 | 38899 ft | 486 kts | 156° |
| 2026-05-04 03:28 | -17.02351 | 161.16080 | 38900 ft | 486 kts | 156° |
| 2026-05-04 03:29 | -17.08271 | 161.19517 | 38898 ft | 486 kts | 156° |
| 2026-05-04 03:29 | -17.14189 | 161.22957 | 38904 ft | 486 kts | 156° |
| 2026-05-04 03:30 | -17.20067 | 161.26376 | 38900 ft | 486 kts | 156° |
| 2026-05-04 03:30 | -17.25972 | 161.29814 | 38903 ft | 486 kts | 156° |
| 2026-05-04 03:31 | -17.31878 | 161.33254 | 38905 ft | 486 kts | 156° |
| 2026-05-04 03:31 | -17.37784 | 161.36696 | 38903 ft | 486 kts | 156° |
| 2026-05-04 03:32 | -17.43692 | 161.40143 | 38898 ft | 486 kts | 156° |
| 2026-05-04 03:32 | -17.49603 | 161.43593 | 38900 ft | 486 kts | 156° |
| 2026-05-04 03:33 | -17.55504 | 161.47042 | 38902 ft | 485 kts | 156° |
| 2026-05-04 03:33 | -17.61398 | 161.50488 | 38906 ft | 485 kts | 156° |
| 2026-05-04 03:34 | -17.67290 | 161.53935 | 38900 ft | 485 kts | 156° |
| 2026-05-04 03:34 | -17.73142 | 161.57361 | 38907 ft | 485 kts | 156° |
| 2026-05-04 03:35 | -17.79034 | 161.60814 | 38903 ft | 484 kts | 156° |
| 2026-05-04 03:35 | -17.84914 | 161.64263 | 38904 ft | 484 kts | 156° |
| 2026-05-04 03:36 | -17.90798 | 161.67716 | 38906 ft | 484 kts | 156° |
| 2026-05-04 03:36 | -17.96677 | 161.71169 | 38907 ft | 484 kts | 156° |
| 2026-05-04 03:37 | -18.02561 | 161.74628 | 38907 ft | 484 kts | 156° |
| 2026-05-04 03:37 | -18.08436 | 161.78084 | 38910 ft | 484 kts | 156° |
| 2026-05-04 03:38 | -18.14275 | 161.81521 | 38907 ft | 484 kts | 156° |
| 2026-05-04 03:38 | -18.20150 | 161.84982 | 38906 ft | 484 kts | 156° |
| 2026-05-04 03:39 | -18.26030 | 161.88449 | 38916 ft | 484 kts | 156° |
| 2026-05-04 03:39 | -18.31892 | 161.91909 | 38908 ft | 483 kts | 156° |
| 2026-05-04 03:40 | -18.37752 | 161.95370 | 38911 ft | 483 kts | 156° |
| 2026-05-04 03:40 | -18.43616 | 161.98835 | 38911 ft | 483 kts | 156° |
| 2026-05-04 03:41 | -18.49472 | 162.02299 | 38912 ft | 483 kts | 156° |
| 2026-05-04 03:41 | -18.55302 | 162.05749 | 38912 ft | 483 kts | 156° |
| 2026-05-04 03:42 | -18.61166 | 162.09224 | 38913 ft | 482 kts | 156° |
| 2026-05-04 03:42 | -18.67005 | 162.12687 | 38914 ft | 481 kts | 156° |
| 2026-05-04 03:43 | -18.72844 | 162.16151 | 38911 ft | 481 kts | 156° |
| 2026-05-04 03:43 | -18.78681 | 162.19617 | 38912 ft | 481 kts | 156° |
| 2026-05-04 03:44 | -18.84518 | 162.23085 | 38913 ft | 481 kts | 156° |
| 2026-05-04 03:44 | -18.90324 | 162.26539 | 38920 ft | 481 kts | 156° |
| 2026-05-04 03:45 | -18.96156 | 162.30012 | 38914 ft | 480 kts | 156° |
| 2026-05-04 03:45 | -19.01965 | 162.33473 | 38914 ft | 479 kts | 156° |
| 2026-05-04 03:46 | -19.07771 | 162.36934 | 38917 ft | 479 kts | 156° |
| 2026-05-04 03:46 | -19.13569 | 162.40393 | 38912 ft | 479 kts | 156° |
| 2026-05-04 03:47 | -19.19375 | 162.43860 | 38913 ft | 479 kts | 156° |
| 2026-05-04 03:47 | -19.25143 | 162.47308 | 38921 ft | 479 kts | 156° |
| 2026-05-04 03:48 | -19.30938 | 162.50775 | 38921 ft | 478 kts | 156° |
| 2026-05-04 03:48 | -19.36733 | 162.54245 | 38916 ft | 478 kts | 156° |
| 2026-05-04 03:49 | -19.42521 | 162.57712 | 38915 ft | 478 kts | 156° |
| 2026-05-04 03:49 | -19.48303 | 162.61180 | 38923 ft | 478 kts | 156° |
| 2026-05-04 03:50 | -19.54092 | 162.64654 | 38921 ft | 477 kts | 156° |
| 2026-05-04 03:50 | -19.59868 | 162.68123 | 38923 ft | 477 kts | 156° |
| 2026-05-04 03:51 | -19.65575 | 162.71554 | 38924 ft | 476 kts | 156° |
| 2026-05-04 03:51 | -19.71351 | 162.75029 | 38922 ft | 476 kts | 156° |
| 2026-05-04 03:52 | -19.77112 | 162.78498 | 38922 ft | 476 kts | 156° |
| 2026-05-04 03:52 | -19.82883 | 162.81976 | 38923 ft | 476 kts | 156° |
| 2026-05-04 03:53 | -19.88647 | 162.85452 | 38925 ft | 476 kts | 156° |
| 2026-05-04 03:53 | -19.94378 | 162.88912 | 38925 ft | 476 kts | 156° |
| 2026-05-04 03:54 | -20.00137 | 162.92393 | 38923 ft | 476 kts | 156° |
| 2026-05-04 03:54 | -20.05897 | 162.95876 | 38930 ft | 476 kts | 156° |
| 2026-05-04 03:55 | -20.11631 | 162.99347 | 38926 ft | 475 kts | 156° |
| 2026-05-04 03:55 | -20.17447 | 163.02635 | 38923 ft | 471 kts | 161° |
| 2026-05-04 03:56 | -20.23400 | 163.05514 | 38923 ft | 470 kts | 162° |
| 2026-05-04 03:56 | -20.29364 | 163.08389 | 38925 ft | 470 kts | 161° |
| 2026-05-04 03:57 | -20.34340 | 163.10853 | 38927 ft | 470 kts | 161° |
| 2026-05-04 03:57 | -20.40226 | 163.13810 | 38918 ft | 470 kts | 161° |
| 2026-05-04 03:58 | -20.49114 | 163.18294 | 38923 ft | 470 kts | 161° |
| 2026-05-04 03:58 | -20.55039 | 163.21283 | 38928 ft | 470 kts | 161° |
| 2026-05-04 03:59 | -20.60937 | 163.24259 | 38924 ft | 470 kts | 161° |
| 2026-05-04 03:59 | -20.66854 | 163.27246 | 38924 ft | 470 kts | 161° |
| 2026-05-04 04:00 | -20.72770 | 163.30236 | 38936 ft | 470 kts | 161° |
| 2026-05-04 04:00 | -20.78675 | 163.33224 | 38928 ft | 469 kts | 161° |
| 2026-05-04 04:01 | -20.84572 | 163.36210 | 38920 ft | 469 kts | 161° |
| 2026-05-04 04:01 | -20.90464 | 163.39196 | 38921 ft | 469 kts | 161° |
| 2026-05-04 04:02 | -20.96360 | 163.42186 | 38918 ft | 469 kts | 161° |
| 2026-05-04 04:02 | -21.02252 | 163.45177 | 38936 ft | 469 kts | 161° |
| 2026-05-04 04:03 | -21.08149 | 163.48173 | 38925 ft | 469 kts | 161° |
| 2026-05-04 04:03 | -21.13997 | 163.51147 | 38930 ft | 469 kts | 161° |
| 2026-05-04 04:04 | -21.19895 | 163.54149 | 38928 ft | 469 kts | 161° |
| 2026-05-04 04:04 | -21.25789 | 163.57152 | 38928 ft | 469 kts | 161° |
| 2026-05-04 04:05 | -21.31683 | 163.60157 | 38944 ft | 469 kts | 161° |
| 2026-05-04 04:05 | -21.37550 | 163.63151 | 38930 ft | 469 kts | 161° |
| 2026-05-04 04:06 | -21.43446 | 163.66163 | 38939 ft | 469 kts | 161° |
| 2026-05-04 04:06 | -21.49318 | 163.69167 | 38934 ft | 467 kts | 161° |
| 2026-05-04 04:07 | -21.55195 | 163.72174 | 38934 ft | 467 kts | 161° |
| 2026-05-04 04:07 | -21.61062 | 163.75178 | 38934 ft | 467 kts | 161° |
| 2026-05-04 04:08 | -21.66926 | 163.78184 | 38942 ft | 467 kts | 161° |
| 2026-05-04 04:08 | -21.72802 | 163.81199 | 38931 ft | 467 kts | 161° |
| 2026-05-04 04:09 | -21.78638 | 163.84196 | 38935 ft | 468 kts | 161° |
| 2026-05-04 04:09 | -21.84522 | 163.87221 | 38937 ft | 468 kts | 161° |
| 2026-05-04 04:10 | -21.90390 | 163.90240 | 38936 ft | 468 kts | 161° |
| 2026-05-04 04:10 | -21.96262 | 163.93264 | 38935 ft | 468 kts | 161° |
| 2026-05-04 04:11 | -22.02099 | 163.96273 | 38938 ft | 468 kts | 161° |
| 2026-05-04 04:11 | -22.07973 | 163.99303 | 38938 ft | 468 kts | 161° |
| 2026-05-04 04:12 | -22.13850 | 164.02338 | 38939 ft | 467 kts | 161° |
| 2026-05-04 04:12 | -22.19716 | 164.05372 | 38938 ft | 466 kts | 161° |
| 2026-05-04 04:13 | -22.25565 | 164.08398 | 38941 ft | 466 kts | 161° |
| 2026-05-04 04:13 | -22.31406 | 164.11422 | 38953 ft | 466 kts | 161° |
| 2026-05-04 04:14 | -22.37220 | 164.14435 | 38944 ft | 466 kts | 162° |
| 2026-05-04 04:14 | -22.43065 | 164.17468 | 38944 ft | 466 kts | 162° |
| 2026-05-04 04:15 | -22.48922 | 164.20510 | 38947 ft | 466 kts | 162° |
| 2026-05-04 04:15 | -22.54771 | 164.23550 | 38946 ft | 466 kts | 162° |
| 2026-05-04 04:16 | -22.60601 | 164.26583 | 38947 ft | 466 kts | 161° |
| 2026-05-04 04:16 | -22.66414 | 164.29611 | 38952 ft | 466 kts | 162° |
| 2026-05-04 04:17 | -22.72261 | 164.32659 | 38949 ft | 467 kts | 162° |
| 2026-05-04 04:17 | -22.78120 | 164.35716 | 38949 ft | 467 kts | 162° |
| 2026-05-04 04:18 | -22.83957 | 164.38765 | 38949 ft | 465 kts | 162° |
| 2026-05-04 04:18 | -22.89787 | 164.41813 | 38952 ft | 465 kts | 162° |
| 2026-05-04 04:19 | -22.95619 | 164.44864 | 38952 ft | 465 kts | 162° |
| 2026-05-04 04:19 | -23.01411 | 164.47897 | 38953 ft | 464 kts | 162° |
| 2026-05-04 04:20 | -23.07236 | 164.50951 | 38952 ft | 465 kts | 162° |
| 2026-05-04 04:20 | -23.13056 | 164.54005 | 38952 ft | 465 kts | 162° |
| 2026-05-04 04:21 | -23.18881 | 164.57065 | 38952 ft | 465 kts | 162° |
| 2026-05-04 04:21 | -23.24674 | 164.60111 | 38958 ft | 465 kts | 162° |
| 2026-05-04 04:22 | -23.30497 | 164.63176 | 38966 ft | 465 kts | 162° |
| 2026-05-04 04:22 | -23.36320 | 164.66244 | 38955 ft | 465 kts | 162° |
| 2026-05-04 04:23 | -23.42149 | 164.69318 | 38958 ft | 465 kts | 162° |
| 2026-05-04 04:23 | -23.47974 | 164.72393 | 38962 ft | 465 kts | 162° |
| 2026-05-04 04:24 | -23.53777 | 164.75460 | 38958 ft | 463 kts | 162° |
| 2026-05-04 04:24 | -23.59588 | 164.78534 | 38958 ft | 463 kts | 162° |
| 2026-05-04 04:25 | -23.65347 | 164.81583 | 38958 ft | 463 kts | 162° |
| 2026-05-04 04:25 | -23.71138 | 164.84651 | 38958 ft | 463 kts | 162° |
| 2026-05-04 04:26 | -23.76950 | 164.87734 | 38964 ft | 463 kts | 162° |
| 2026-05-04 04:26 | -23.82741 | 164.90810 | 38957 ft | 463 kts | 162° |
| 2026-05-04 04:27 | -23.88540 | 164.93892 | 38960 ft | 463 kts | 162° |
| 2026-05-04 04:27 | -23.94336 | 164.96976 | 38974 ft | 463 kts | 162° |
| 2026-05-04 04:28 | -24.00132 | 165.00063 | 39008 ft | 464 kts | 162° |
| 2026-05-04 04:28 | -24.03009 | 165.01673 | 39155 ft | 467 kts | 159° |
| 2026-05-04 04:28 | -24.05853 | 165.03429 | 39308 ft | 468 kts | 158° |
| 2026-05-04 04:29 | -24.08639 | 165.05225 | 39451 ft | 469 kts | 157° |
| 2026-05-04 04:29 | -24.11447 | 165.07052 | 39591 ft | 469 kts | 157° |
| 2026-05-04 04:29 | -24.14252 | 165.08866 | 39779 ft | 467 kts | 158° |
| 2026-05-04 04:29 | -24.17052 | 165.10660 | 39952 ft | 466 kts | 158° |
| 2026-05-04 04:30 | -24.19852 | 165.12436 | 40081 ft | 466 kts | 158° |
| 2026-05-04 04:30 | -24.22667 | 165.14210 | 40188 ft | 466 kts | 158° |
| 2026-05-04 04:30 | -24.25478 | 165.15975 | 40303 ft | 466 kts | 158° |
| 2026-05-04 04:30 | -24.28291 | 165.17741 | 40430 ft | 466 kts | 158° |
| 2026-05-04 04:31 | -24.31070 | 165.19486 | 40536 ft | 465 kts | 158° |
| 2026-05-04 04:31 | -24.33882 | 165.21254 | 40640 ft | 465 kts | 158° |
| 2026-05-04 04:31 | -24.36696 | 165.23023 | 40750 ft | 465 kts | 158° |
| 2026-05-04 04:31 | -24.39497 | 165.24787 | 40853 ft | 466 kts | 158° |
| 2026-05-04 04:32 | -24.45125 | 165.28335 | 40972 ft | 466 kts | 158° |
| 2026-05-04 04:32 | -24.50752 | 165.31886 | 40973 ft | 465 kts | 158° |
| 2026-05-04 04:33 | -24.56366 | 165.35433 | 40975 ft | 465 kts | 158° |
| 2026-05-04 04:33 | -24.61949 | 165.38964 | 40984 ft | 466 kts | 158° |
| 2026-05-04 04:34 | -24.67566 | 165.42519 | 40979 ft | 466 kts | 158° |
| 2026-05-04 04:34 | -24.73188 | 165.46081 | 40979 ft | 466 kts | 158° |
| 2026-05-04 04:35 | -24.78770 | 165.49623 | 40976 ft | 466 kts | 158° |
| 2026-05-04 04:35 | -24.84383 | 165.53187 | 40982 ft | 466 kts | 158° |
| 2026-05-04 04:36 | -24.89989 | 165.56751 | 40982 ft | 466 kts | 158° |
| 2026-05-04 04:36 | -24.95609 | 165.60328 | 40987 ft | 466 kts | 158° |
| 2026-05-04 04:37 | -25.06827 | 165.67478 | 40989 ft | 466 kts | 158° |
| 2026-05-04 04:38 | -25.12443 | 165.71063 | 40989 ft | 466 kts | 158° |
| 2026-05-04 04:38 | -25.18056 | 165.74650 | 40985 ft | 466 kts | 158° |
| 2026-05-04 04:39 | -25.23668 | 165.78241 | 40989 ft | 466 kts | 158° |
| 2026-05-04 04:39 | -25.29266 | 165.81827 | 41001 ft | 464 kts | 158° |
| 2026-05-04 04:40 | -25.34825 | 165.85392 | 40988 ft | 464 kts | 158° |
| 2026-05-04 04:40 | -25.40410 | 165.88976 | 40988 ft | 464 kts | 158° |
| 2026-05-04 04:41 | -25.46001 | 165.92568 | 40996 ft | 464 kts | 158° |
| 2026-05-04 04:41 | -25.51588 | 165.96162 | 41010 ft | 464 kts | 158° |
| 2026-05-04 04:42 | -25.57133 | 165.99732 | 40993 ft | 464 kts | 158° |
| 2026-05-04 04:42 | -25.62728 | 166.03339 | 41004 ft | 464 kts | 158° |
| 2026-05-04 04:43 | -25.68322 | 166.06949 | 41006 ft | 465 kts | 158° |
| 2026-05-04 04:43 | -25.73909 | 166.10559 | 41011 ft | 465 kts | 158° |
| 2026-05-04 04:44 | -25.79493 | 166.14171 | 41007 ft | 465 kts | 158° |
| 2026-05-04 04:44 | -25.85039 | 166.17762 | 41019 ft | 464 kts | 158° |
| 2026-05-04 04:45 | -25.90618 | 166.21379 | 41032 ft | 463 kts | 158° |
| 2026-05-04 04:47 | -26.10092 | 166.34032 | 41027 ft | 464 kts | 158° |
| 2026-05-04 04:47 | -26.15665 | 166.37663 | 41029 ft | 464 kts | 158° |
| 2026-05-04 04:48 | -26.21236 | 166.41296 | 41029 ft | 464 kts | 158° |
| 2026-05-04 04:49 | -26.34230 | 166.49786 | 41031 ft | 464 kts | 158° |
| 2026-05-04 04:49 | -26.39804 | 166.53435 | 41034 ft | 463 kts | 158° |
| 2026-05-04 04:50 | -26.45362 | 166.57079 | 41034 ft | 463 kts | 158° |
| 2026-05-04 04:50 | -26.50910 | 166.60719 | 41042 ft | 463 kts | 158° |
| 2026-05-04 04:51 | -26.56429 | 166.64343 | 41045 ft | 463 kts | 158° |
| 2026-05-04 04:51 | -26.61985 | 166.67996 | 41050 ft | 463 kts | 158° |
| 2026-05-04 04:52 | -26.67539 | 166.71653 | 41051 ft | 463 kts | 158° |
| 2026-05-04 04:52 | -26.73093 | 166.75314 | 41056 ft | 463 kts | 158° |
| 2026-05-04 04:53 | -26.78644 | 166.78976 | 41056 ft | 463 kts | 158° |
| 2026-05-04 04:53 | -26.84191 | 166.82641 | 41058 ft | 463 kts | 158° |
| 2026-05-04 04:54 | -26.89750 | 166.86317 | 41059 ft | 463 kts | 158° |
| 2026-05-04 04:54 | -26.95304 | 166.89995 | 41062 ft | 463 kts | 158° |
| 2026-05-04 04:55 | -27.00851 | 166.93673 | 41064 ft | 463 kts | 158° |
| 2026-05-04 04:55 | -27.06357 | 166.97327 | 41062 ft | 462 kts | 158° |
| 2026-05-04 04:56 | -27.11892 | 167.01004 | 41074 ft | 463 kts | 158° |
| 2026-05-04 04:56 | -27.17437 | 167.04693 | 41076 ft | 463 kts | 158° |
| 2026-05-04 04:57 | -27.22979 | 167.08383 | 41067 ft | 463 kts | 158° |
| 2026-05-04 04:57 | -27.28521 | 167.12079 | 41071 ft | 463 kts | 158° |
| 2026-05-04 04:58 | -27.34053 | 167.15772 | 41082 ft | 463 kts | 158° |
| 2026-05-04 04:58 | -27.39596 | 167.19476 | 41085 ft | 463 kts | 158° |
| 2026-05-04 04:59 | -27.45141 | 167.23186 | 41095 ft | 463 kts | 158° |
| 2026-05-04 04:59 | -27.50630 | 167.26864 | 41086 ft | 462 kts | 158° |
| 2026-05-04 05:00 | -27.56160 | 167.30574 | 41088 ft | 462 kts | 158° |
| 2026-05-04 05:01 | -27.64442 | 167.36137 | 41094 ft | 462 kts | 158° |
| 2026-05-04 05:01 | -27.69958 | 167.39847 | 41094 ft | 462 kts | 158° |
| 2026-05-04 05:02 | -27.75481 | 167.43567 | 41100 ft | 462 kts | 158° |
| 2026-05-04 05:02 | -27.81010 | 167.47295 | 41108 ft | 462 kts | 158° |
| 2026-05-04 05:03 | -27.86497 | 167.50998 | 41105 ft | 463 kts | 158° |
| 2026-05-04 05:04 | -27.97554 | 167.58475 | 41109 ft | 463 kts | 158° |
| 2026-05-04 05:04 | -28.03086 | 167.62223 | 41116 ft | 463 kts | 157° |
| 2026-05-04 05:06 | -28.24820 | 167.78054 | 41127 ft | 469 kts | 153° |
| 2026-05-04 05:07 | -28.30176 | 167.82311 | 41132 ft | 469 kts | 154° |
| 2026-05-04 05:07 | -28.35536 | 167.86516 | 41133 ft | 468 kts | 154° |
| 2026-05-04 05:09 | -28.59700 | 168.05446 | 41144 ft | 470 kts | 154° |
| 2026-05-04 05:10 | -28.65044 | 168.09649 | 41148 ft | 470 kts | 154° |
| 2026-05-04 05:10 | -28.70426 | 168.13887 | 41152 ft | 470 kts | 154° |
| 2026-05-04 05:11 | -28.75804 | 168.18128 | 41162 ft | 470 kts | 154° |
| 2026-05-04 05:11 | -28.81190 | 168.22379 | 41162 ft | 471 kts | 154° |
| 2026-05-04 05:12 | -28.86586 | 168.26645 | 41167 ft | 471 kts | 154° |
| 2026-05-04 05:12 | -28.91974 | 168.30912 | 41164 ft | 471 kts | 154° |
| 2026-05-04 05:13 | -28.97331 | 168.35157 | 41172 ft | 471 kts | 153° |
| 2026-05-04 05:13 | -29.02714 | 168.39430 | 41173 ft | 471 kts | 153° |
| 2026-05-04 05:14 | -29.08104 | 168.43712 | 41173 ft | 472 kts | 153° |
| 2026-05-04 05:14 | -29.13494 | 168.47999 | 41181 ft | 472 kts | 153° |
| 2026-05-04 05:15 | -29.18896 | 168.52303 | 41182 ft | 472 kts | 153° |
| 2026-05-04 05:15 | -29.24287 | 168.56605 | 41185 ft | 472 kts | 153° |
| 2026-05-04 05:16 | -29.29675 | 168.60909 | 41187 ft | 472 kts | 153° |
| 2026-05-04 05:16 | -29.35071 | 168.65224 | 41205 ft | 473 kts | 153° |
| 2026-05-04 05:17 | -29.40437 | 168.69521 | 41204 ft | 474 kts | 153° |
| 2026-05-04 05:17 | -29.45846 | 168.73857 | 41195 ft | 474 kts | 153° |
| 2026-05-04 05:18 | -29.51253 | 168.78200 | 41200 ft | 474 kts | 153° |
| 2026-05-04 05:18 | -29.56667 | 168.82554 | 41200 ft | 474 kts | 153° |
| 2026-05-04 05:19 | -29.62082 | 168.86915 | 41206 ft | 474 kts | 153° |
| 2026-05-04 05:19 | -29.67487 | 168.91272 | 41209 ft | 475 kts | 153° |
| 2026-05-04 05:20 | -29.72911 | 168.95649 | 41209 ft | 476 kts | 153° |
| 2026-05-04 05:20 | -29.78302 | 169.00008 | 41214 ft | 476 kts | 153° |
| 2026-05-04 05:21 | -29.83719 | 169.04393 | 41216 ft | 476 kts | 153° |
| 2026-05-04 05:21 | -29.89144 | 169.08791 | 41216 ft | 476 kts | 153° |
| 2026-05-04 05:22 | -29.94565 | 169.13191 | 41219 ft | 476 kts | 153° |
| 2026-05-04 05:22 | -29.99993 | 169.17602 | 41220 ft | 477 kts | 152° |
| 2026-05-04 05:23 | -30.05422 | 169.22020 | 41219 ft | 478 kts | 152° |
| 2026-05-04 05:23 | -30.10858 | 169.26451 | 41222 ft | 478 kts | 152° |
| 2026-05-04 05:24 | -30.16264 | 169.30864 | 41232 ft | 478 kts | 152° |
| 2026-05-04 05:24 | -30.21698 | 169.35305 | 41236 ft | 478 kts | 152° |
| 2026-05-04 05:25 | -30.27138 | 169.39757 | 41230 ft | 478 kts | 152° |
| 2026-05-04 05:25 | -30.32576 | 169.44213 | 41241 ft | 479 kts | 152° |
| 2026-05-04 05:26 | -30.37982 | 169.48650 | 41242 ft | 480 kts | 152° |
| 2026-05-04 05:26 | -30.43433 | 169.53128 | 41242 ft | 480 kts | 152° |
| 2026-05-04 05:28 | -30.65248 | 169.71116 | 41248 ft | 482 kts | 151° |
| 2026-05-04 05:29 | -30.70727 | 169.75652 | 41254 ft | 482 kts | 151° |
| 2026-05-04 05:29 | -30.76195 | 169.80184 | 41265 ft | 483 kts | 150° |
| 2026-05-04 05:31 | -30.98134 | 169.98431 | 41264 ft | 487 kts | 149° |
| 2026-05-04 05:32 | -31.03717 | 170.02873 | 41275 ft | 484 kts | 153° |
| 2026-05-04 05:33 | -31.12299 | 170.09088 | 41275 ft | 484 kts | 153° |
| 2026-05-04 05:33 | -31.17044 | 170.12573 | 41284 ft | 484 kts | 153° |
| 2026-05-04 05:34 | -31.22744 | 170.16782 | 41301 ft | 485 kts | 153° |
| 2026-05-04 05:34 | -31.28464 | 170.21016 | 41288 ft | 487 kts | 152° |
| 2026-05-04 05:35 | -31.34205 | 170.25275 | 41293 ft | 488 kts | 152° |
| 2026-05-04 05:35 | -31.39906 | 170.29512 | 41297 ft | 488 kts | 152° |
| 2026-05-04 05:36 | -31.45642 | 170.33779 | 41300 ft | 488 kts | 152° |
| 2026-05-04 05:36 | -31.51389 | 170.38062 | 41304 ft | 489 kts | 152° |
| 2026-05-04 05:37 | -31.57135 | 170.42351 | 41295 ft | 489 kts | 152° |
| 2026-05-04 05:37 | -31.62878 | 170.46644 | 41308 ft | 489 kts | 152° |
| 2026-05-04 05:38 | -31.71487 | 170.53090 | 41308 ft | 489 kts | 152° |
| 2026-05-04 05:38 | -31.77204 | 170.57378 | 41311 ft | 492 kts | 151° |
| 2026-05-04 05:39 | -31.85882 | 170.63901 | 41322 ft | 493 kts | 151° |
| 2026-05-04 05:40 | -31.94551 | 170.70431 | 41322 ft | 493 kts | 151° |
| 2026-05-04 05:40 | -32.00333 | 170.74795 | 41325 ft | 493 kts | 151° |
| 2026-05-04 05:41 | -32.06114 | 170.79165 | 41331 ft | 494 kts | 151° |
| 2026-05-04 05:41 | -32.11875 | 170.83526 | 41333 ft | 494 kts | 150° |
| 2026-05-04 05:42 | -32.17662 | 170.87914 | 41333 ft | 494 kts | 150° |
| 2026-05-04 05:42 | -32.23447 | 170.92307 | 41339 ft | 495 kts | 150° |
| 2026-05-04 05:43 | -32.29251 | 170.96720 | 41339 ft | 497 kts | 150° |
| 2026-05-04 05:45 | -32.52548 | 171.14508 | 41350 ft | 498 kts | 150° |
| 2026-05-04 05:47 | -32.75841 | 171.32403 | 41367 ft | 501 kts | 149° |
| 2026-05-04 05:47 | -32.81664 | 171.36895 | 41368 ft | 501 kts | 149° |
| 2026-05-04 05:48 | -32.87516 | 171.41416 | 41379 ft | 502 kts | 149° |
| 2026-05-04 05:48 | -32.93372 | 171.45947 | 41371 ft | 502 kts | 149° |
| 2026-05-04 05:49 | -32.99232 | 171.50489 | 41373 ft | 502 kts | 149° |
| 2026-05-04 05:49 | -33.05085 | 171.55032 | 41376 ft | 502 kts | 149° |
| 2026-05-04 05:51 | -33.28519 | 171.73297 | 41392 ft | 504 kts | 149° |
| 2026-05-04 05:52 | -33.34360 | 171.77868 | 41387 ft | 504 kts | 149° |
| 2026-05-04 05:52 | -33.40212 | 171.82456 | 41392 ft | 504 kts | 149° |
| 2026-05-04 05:54 | -33.63699 | 172.00942 | 41398 ft | 505 kts | 148° |
| 2026-05-04 05:55 | -33.69567 | 172.05579 | 41406 ft | 505 kts | 148° |
| 2026-05-04 05:55 | -33.75447 | 172.10235 | 41410 ft | 506 kts | 148° |
| 2026-05-04 05:56 | -33.81325 | 172.14896 | 41411 ft | 506 kts | 148° |
| 2026-05-04 05:56 | -33.87201 | 172.19564 | 41414 ft | 506 kts | 148° |
| 2026-05-04 05:57 | -33.93040 | 172.24210 | 41414 ft | 506 kts | 148° |
| 2026-05-04 05:57 | -33.98916 | 172.28893 | 41430 ft | 506 kts | 148° |
| 2026-05-04 05:58 | -34.04789 | 172.33581 | 41425 ft | 506 kts | 148° |
| 2026-05-04 05:58 | -34.10663 | 172.38279 | 41425 ft | 506 kts | 148° |
| 2026-05-04 05:59 | -34.16529 | 172.42978 | 41425 ft | 506 kts | 148° |
| 2026-05-04 05:59 | -34.22414 | 172.47701 | 41433 ft | 507 kts | 148° |
| 2026-05-04 06:00 | -34.28534 | 172.51782 | 41434 ft | 505 kts | 157° |
| 2026-05-04 06:00 | -34.34939 | 172.55253 | 41440 ft | 504 kts | 158° |
| 2026-05-04 06:01 | -34.41361 | 172.58737 | 41436 ft | 504 kts | 158° |
| 2026-05-04 06:03 | -34.66244 | 172.72340 | 41451 ft | 504 kts | 157° |
| 2026-05-04 06:05 | -34.94648 | 172.89015 | 41457 ft | 506 kts | 150° |
| 2026-05-04 06:06 | -35.00633 | 172.93470 | 41461 ft | 506 kts | 150° |
| 2026-05-04 06:06 | -35.06639 | 172.97967 | 41463 ft | 506 kts | 150° |
| 2026-05-04 06:07 | -35.12645 | 173.02475 | 41467 ft | 506 kts | 150° |
| 2026-05-04 06:07 | -35.18639 | 173.06984 | 41466 ft | 506 kts | 150° |
| 2026-05-04 06:08 | -35.24597 | 173.11473 | 41466 ft | 506 kts | 149° |
| 2026-05-04 06:08 | -35.30584 | 173.15993 | 41467 ft | 506 kts | 149° |
| 2026-05-04 06:09 | -35.36584 | 173.20531 | 41444 ft | 506 kts | 149° |
| 2026-05-04 06:09 | -35.39578 | 173.22798 | 41113 ft | 504 kts | 149° |
| 2026-05-04 06:11 | -35.60259 | 173.38513 | 35833 ft | 514 kts | 149° |
| 2026-05-04 06:11 | -35.63309 | 173.40840 | 34992 ft | 516 kts | 149° |
| 2026-05-04 06:13 | -35.84979 | 173.57426 | 28592 ft | 524 kts | 148° |
| 2026-05-04 06:14 | -36.02803 | 173.71149 | 24573 ft | 478 kts | 147° |
| 2026-05-04 06:14 | -36.05592 | 173.73302 | 23858 ft | 466 kts | 146° |
| 2026-05-04 06:15 | -36.08309 | 173.75402 | 23179 ft | 456 kts | 146° |
| 2026-05-04 06:15 | -36.10076 | 173.76769 | 22764 ft | 452 kts | 146° |
| 2026-05-04 06:15 | -36.13619 | 173.79513 | 21957 ft | 444 kts | 146° |
| 2026-05-04 06:15 | -36.16217 | 173.81527 | 21350 ft | 439 kts | 146° |
| 2026-05-04 06:16 | -36.18795 | 173.83528 | 20744 ft | 434 kts | 146° |
| 2026-05-04 06:16 | -36.21337 | 173.85501 | 20143 ft | 430 kts | 146° |
| 2026-05-04 06:16 | -36.23853 | 173.87456 | 19546 ft | 425 kts | 146° |
| 2026-05-04 06:16 | -36.26355 | 173.89401 | 18939 ft | 422 kts | 146° |
| 2026-05-04 06:17 | -36.28830 | 173.91326 | 18280 ft | 418 kts | 146° |
| 2026-05-04 06:17 | -36.31211 | 173.93180 | 17692 ft | 413 kts | 146° |
| 2026-05-04 06:17 | -36.33640 | 173.95073 | 17086 ft | 408 kts | 146° |
| 2026-05-04 06:17 | -36.36034 | 173.96940 | 16486 ft | 403 kts | 146° |
| 2026-05-04 06:18 | -36.38401 | 173.98787 | 15876 ft | 399 kts | 146° |
| 2026-05-04 06:18 | -36.40739 | 174.00613 | 15300 ft | 395 kts | 146° |
| 2026-05-04 06:18 | -36.43055 | 174.02423 | 14521 ft | 396 kts | 146° |
| 2026-05-04 06:20 | -36.57826 | 174.13989 | 10859 ft | 345 kts | 145° |
| 2026-05-04 06:20 | -36.59813 | 174.15547 | 10715 ft | 329 kts | 144° |
| 2026-05-04 06:21 | -36.66904 | 174.21124 | 10196 ft | 276 kts | 144° |
| 2026-05-04 06:21 | -36.68506 | 174.22388 | 10050 ft | 268 kts | 144° |
| 2026-05-04 06:22 | -36.70091 | 174.23642 | 9833 ft | 277 kts | 144° |
| 2026-05-04 06:22 | -36.71747 | 174.24956 | 9766 ft | 285 kts | 144° |
| 2026-05-04 06:25 | -36.92786 | 174.41603 | 5670 ft | 269 kts | 145° |
| 2026-05-04 06:25 | -36.94367 | 174.42858 | 5383 ft | 268 kts | 145° |
| 2026-05-04 06:26 | -36.95936 | 174.44105 | 5089 ft | 267 kts | 145° |
| 2026-05-04 06:26 | -36.97363 | 174.45239 | 4833 ft | 266 kts | 145° |
| 2026-05-04 06:26 | -36.98805 | 174.46385 | 4561 ft | 265 kts | 145° |
| 2026-05-04 06:26 | -37.00350 | 174.47614 | 4271 ft | 264 kts | 145° |
| 2026-05-04 06:27 | -37.06119 | 174.52214 | 3623 ft | 225 kts | 143° |
| 2026-05-04 06:28 | -37.07087 | 174.53627 | 3567 ft | 212 kts | 107° |
| 2026-05-04 06:28 | -37.07317 | 174.55424 | 3520 ft | 210 kts | 92° |
| 2026-05-04 06:28 | -37.07138 | 174.57173 | 3385 ft | 202 kts | 72° |
| 2026-05-04 06:28 | -37.06656 | 174.58813 | 3129 ft | 199 kts | 69° |
| 2026-05-04 06:29 | -37.06198 | 174.60421 | 2822 ft | 194 kts | 71° |
| 2026-05-04 06:29 | -37.05786 | 174.61976 | 2532 ft | 181 kts | 71° |
| 2026-05-04 06:29 | -37.05393 | 174.63404 | 2297 ft | 170 kts | 70° |
| 2026-05-04 06:29 | -37.05022 | 174.64743 | 2067 ft | 156 kts | 71° |
| 2026-05-04 06:30 | -37.04675 | 174.66007 | 1858 ft | 151 kts | 71° |
| 2026-05-04 06:30 | -37.04347 | 174.67200 | 1647 ft | 139 kts | 71° |
| 2026-05-04 06:30 | -37.04043 | 174.68304 | 1454 ft | 130 kts | 71° |
| 2026-05-04 06:30 | -37.03750 | 174.69369 | 1303 ft | 129 kts | 72° |
| 2026-05-04 06:31 | -37.03458 | 174.70431 | 1134 ft | 130 kts | 72° |
| 2026-05-04 06:31 | -37.03165 | 174.71500 | 952 ft | 130 kts | 71° |
| 2026-05-04 06:31 | -37.02868 | 174.72578 | 797 ft | 131 kts | 71° |
| 2026-05-04 06:31 | -37.02572 | 174.73652 | 633 ft | 131 kts | 71° |
| 2026-05-04 06:32 | -37.02275 | 174.74736 | 413 ft | 134 kts | 71° |
| 2026-05-04 06:33 | -37.00819 | 174.79683 | 32 ft | 12 kts | 41° |
| 2026-05-04 06:34 | -37.00755 | 174.79730 | 31 ft | 10 kts | 0° |
| 2026-05-04 06:34 | -37.00722 | 174.79679 | 31 ft | 8 kts | 268° |
| 2026-05-04 06:34 | -37.00742 | 174.79599 | 32 ft | 11 kts | 250° |
| 2026-05-04 06:34 | -37.00772 | 174.79493 | 32 ft | 15 kts | 251° |
| 2026-05-04 06:35 | -37.00809 | 174.79358 | 32 ft | 18 kts | 250° |
| 2026-05-04 06:36 | -37.01175 | 174.78036 | 32 ft | 18 kts | 251° |
| 2026-05-04 06:37 | -37.01209 | 174.77913 | 32 ft | 15 kts | 251° |
| 2026-05-04 06:37 | -37.01234 | 174.77822 | 32 ft | 9 kts | 251° |
| 2026-05-04 06:37 | -37.01222 | 174.77752 | 32 ft | 9 kts | 324° |
| 2026-05-04 06:37 | -37.01151 | 174.77717 | 32 ft | 13 kts | 340° |
| 2026-05-04 06:38 | -37.01057 | 174.77677 | 32 ft | 16 kts | 341° |
| 2026-05-04 06:38 | -37.00944 | 174.77629 | 32 ft | 19 kts | 341° |
| 2026-05-04 06:40 | -37.00555 | 174.77702 | 32 ft | 0 kts | 341° |
| 2026-05-04 06:40 | -37.00543 | 174.77697 | 32 ft | 0 kts | 341° |
| 2026-05-04 06:40 | -37.00542 | 174.77697 | 32 ft | 0 kts | 341° |
| 2026-05-04 06:50 | -37.00535 | 174.77694 | 31 ft | 0 kts | 340° |